<?xml version="1.0" encoding="UTF-8"?>
<gpx  version="1.1"  creator="Verlag Esterbauer" xmlns:xsi="http://www.w3.org/2001/XMLSchema-instance" xmlns="http://www.topografix.com/GPX/1/1"  xsi:schemaLocation="http://www.topografix.com/GPX/1/1 http://www.topografix.com/GPX/1/1/gpx.xsd">
<metadata>
  <time>2014-04-18T12:26:21Z</time>
</metadata>
<trk>
  <name>rhe1_4</name>
  <cmt>by Verlag Esterbauer</cmt>
  <trkseg>
    <trkpt lat="47.68221056" lon="8.62586139">
    <ele>394</ele>
    <time>2014-01-31T10:56:24Z</time>
    </trkpt>
    <trkpt lat="47.68277556" lon="8.62791945">
    <ele>389</ele>
    <time>2014-01-31T10:57:19Z</time>
    </trkpt>
    <trkpt lat="47.68277556" lon="8.62791945">
    <ele>389</ele>
    <time>2014-01-31T10:57:19Z</time>
    </trkpt>
    <trkpt lat="47.68135417" lon="8.62850917">
    <ele>388</ele>
    <time>2014-01-31T10:57:48Z</time>
    </trkpt>
    <trkpt lat="47.68040278" lon="8.62869001">
    <ele>391</ele>
    <time>2014-01-31T10:58:06Z</time>
    </trkpt>
    <trkpt lat="47.67975334" lon="8.62853028">
    <ele>391</ele>
    <time>2014-01-31T10:58:18Z</time>
    </trkpt>
    <trkpt lat="47.67892139" lon="8.62804584">
    <ele>395</ele>
    <time>2014-01-31T10:58:38Z</time>
    </trkpt>
    <trkpt lat="47.678655" lon="8.6278425">
    <ele>397</ele>
    <time>2014-01-31T10:58:45Z</time>
    </trkpt>
    <trkpt lat="47.67863889" lon="8.62782917">
    <ele>397</ele>
    <time>2014-01-31T10:58:45Z</time>
    </trkpt>
    <trkpt lat="47.67789556" lon="8.627395">
    <ele>402</ele>
    <time>2014-01-31T10:59:14Z</time>
    </trkpt>
    <trkpt lat="47.67728417" lon="8.62679445">
    <ele>403</ele>
    <time>2014-01-31T10:59:44Z</time>
    </trkpt>
    <trkpt lat="47.67696639" lon="8.62629862">
    <ele>400</ele>
    <time>2014-01-31T11:00:06Z</time>
    </trkpt>
    <trkpt lat="47.67616834" lon="8.62499306">
    <ele>395</ele>
    <time>2014-01-31T11:01:04Z</time>
    </trkpt>
    <trkpt lat="47.67604639" lon="8.62489612">
    <ele>403</ele>
    <time>2014-01-31T11:01:12Z</time>
    </trkpt>
    <trkpt lat="47.6760125" lon="8.62471612">
    <ele>399</ele>
    <time>2014-01-31T11:01:19Z</time>
    </trkpt>
    <trkpt lat="47.67551334" lon="8.62331751">
    <ele>394</ele>
    <time>2014-01-31T11:02:18Z</time>
    </trkpt>
    <trkpt lat="47.67435834" lon="8.61987445">
    <ele>409</ele>
    <time>2014-01-31T11:04:49Z</time>
    </trkpt>
    <trkpt lat="47.67435195" lon="8.61801112">
    <ele>421</ele>
    <time>2014-01-31T11:06:10Z</time>
    </trkpt>
    <trkpt lat="47.67507639" lon="8.61663028">
    <ele>415</ele>
    <time>2014-01-31T11:07:10Z</time>
    </trkpt>
    <trkpt lat="47.67512639" lon="8.61658584">
    <ele>415</ele>
    <time>2014-01-31T11:07:11Z</time>
    </trkpt>
    <trkpt lat="47.675295" lon="8.6157025">
    <ele>413</ele>
    <time>2014-01-31T11:07:34Z</time>
    </trkpt>
    <trkpt lat="47.67547417" lon="8.61529556">
    <ele>412</ele>
    <time>2014-01-31T11:07:45Z</time>
    </trkpt>
    <trkpt lat="47.67547306" lon="8.61495056">
    <ele>411</ele>
    <time>2014-01-31T11:07:54Z</time>
    </trkpt>
    <trkpt lat="47.67519167" lon="8.61477751">
    <ele>412</ele>
    <time>2014-01-31T11:08:01Z</time>
    </trkpt>
    <trkpt lat="47.67488223" lon="8.614505">
    <ele>409</ele>
    <time>2014-01-31T11:08:10Z</time>
    </trkpt>
    <trkpt lat="47.67452362" lon="8.61402223">
    <ele>404</ele>
    <time>2014-01-31T11:08:24Z</time>
    </trkpt>
    <trkpt lat="47.67288195" lon="8.61315167">
    <ele>403</ele>
    <time>2014-01-31T11:09:01Z</time>
    </trkpt>
    <trkpt lat="47.67282806" lon="8.61310278">
    <ele>403</ele>
    <time>2014-01-31T11:09:02Z</time>
    </trkpt>
    <trkpt lat="47.67187917" lon="8.61298223">
    <ele>399</ele>
    <time>2014-01-31T11:09:19Z</time>
    </trkpt>
    <trkpt lat="47.67109973" lon="8.61315528">
    <ele>395</ele>
    <time>2014-01-31T11:09:33Z</time>
    </trkpt>
    <trkpt lat="47.66846695" lon="8.61432806">
    <ele>395</ele>
    <time>2014-01-31T11:10:29Z</time>
    </trkpt>
    <trkpt lat="47.66616056" lon="8.61604139">
    <ele>397</ele>
    <time>2014-01-31T11:11:30Z</time>
    </trkpt>
    <trkpt lat="47.66434056" lon="8.61852139">
    <ele>393</ele>
    <time>2014-01-31T11:12:43Z</time>
    </trkpt>
    <trkpt lat="47.66382945" lon="8.61927084">
    <ele>392</ele>
    <time>2014-01-31T11:13:04Z</time>
    </trkpt>
    <trkpt lat="47.66356973" lon="8.62002306">
    <ele>392</ele>
    <time>2014-01-31T11:13:24Z</time>
    </trkpt>
    <trkpt lat="47.66354723" lon="8.6206725">
    <ele>395</ele>
    <time>2014-01-31T11:13:41Z</time>
    </trkpt>
    <trkpt lat="47.66346278" lon="8.62088556">
    <ele>396</ele>
    <time>2014-01-31T11:13:47Z</time>
    </trkpt>
    <trkpt lat="47.66324278" lon="8.62277695">
    <ele>401</ele>
    <time>2014-01-31T11:14:38Z</time>
    </trkpt>
    <trkpt lat="47.66317639" lon="8.62276251">
    <ele>401</ele>
    <time>2014-01-31T11:14:39Z</time>
    </trkpt>
    <trkpt lat="47.66152167" lon="8.62452806">
    <ele>398</ele>
    <time>2014-01-31T11:15:34Z</time>
    </trkpt>
    <trkpt lat="47.65941167" lon="8.62685667">
    <ele>400</ele>
    <time>2014-01-31T11:16:46Z</time>
    </trkpt>
    <trkpt lat="47.65745889" lon="8.62836195">
    <ele>399</ele>
    <time>2014-01-31T11:17:38Z</time>
    </trkpt>
    <trkpt lat="47.65683445" lon="8.62962889">
    <ele>409</ele>
    <time>2014-01-31T11:18:15Z</time>
    </trkpt>
    <trkpt lat="47.65349473" lon="8.63182862">
    <ele>412</ele>
    <time>2014-01-31T11:19:39Z</time>
    </trkpt>
    <trkpt lat="47.65089889" lon="8.63236834">
    <ele>410</ele>
    <time>2014-01-31T11:20:27Z</time>
    </trkpt>
    <trkpt lat="47.65003334" lon="8.63477084">
    <ele>419</ele>
    <time>2014-01-31T11:21:34Z</time>
    </trkpt>
    <trkpt lat="47.64892556" lon="8.6351725">
    <ele>429</ele>
    <time>2014-01-31T11:21:58Z</time>
    </trkpt>
    <trkpt lat="47.64804334" lon="8.63602584">
    <ele>428</ele>
    <time>2014-01-31T11:22:25Z</time>
    </trkpt>
    <trkpt lat="47.64703001" lon="8.63633445">
    <ele>416</ele>
    <time>2014-01-31T11:22:44Z</time>
    </trkpt>
    <trkpt lat="47.64568445" lon="8.63593028">
    <ele>402</ele>
    <time>2014-01-31T11:23:10Z</time>
    </trkpt>
    <trkpt lat="47.64568445" lon="8.63593028">
    <ele>402</ele>
    <time>2014-01-31T11:23:10Z</time>
    </trkpt>
    <trkpt lat="47.64516917" lon="8.63493612">
    <ele>396</ele>
    <time>2014-01-31T11:23:37Z</time>
    </trkpt>
    <trkpt lat="47.64514556" lon="8.63489612">
    <ele>396</ele>
    <time>2014-01-31T11:23:38Z</time>
    </trkpt>
    <trkpt lat="47.64466667" lon="8.63412084">
    <ele>394</ele>
    <time>2014-01-31T11:24:00Z</time>
    </trkpt>
    <trkpt lat="47.64464139" lon="8.63409195">
    <ele>394</ele>
    <time>2014-01-31T11:24:00Z</time>
    </trkpt>
    <trkpt lat="47.64366139" lon="8.63273556">
    <ele>393</ele>
    <time>2014-01-31T11:24:39Z</time>
    </trkpt>
    <trkpt lat="47.64261695" lon="8.63167389">
    <ele>394</ele>
    <time>2014-01-31T11:25:12Z</time>
    </trkpt>
    <trkpt lat="47.64056556" lon="8.62865112">
    <ele>381</ele>
    <time>2014-01-31T11:26:40Z</time>
    </trkpt>
    <trkpt lat="47.63968917" lon="8.62753639">
    <ele>381</ele>
    <time>2014-01-31T11:27:13Z</time>
    </trkpt>
    <trkpt lat="47.63924806" lon="8.62544306">
    <ele>382</ele>
    <time>2014-01-31T11:28:09Z</time>
    </trkpt>
    <trkpt lat="47.63792417" lon="8.62071306">
    <ele>385</ele>
    <time>2014-01-31T11:30:17Z</time>
    </trkpt>
    <trkpt lat="47.63730834" lon="8.61898945">
    <ele>388</ele>
    <time>2014-01-31T11:31:04Z</time>
    </trkpt>
    <trkpt lat="47.63679278" lon="8.61723862">
    <ele>382</ele>
    <time>2014-01-31T11:31:51Z</time>
    </trkpt>
    <trkpt lat="47.63605195" lon="8.61354806">
    <ele>399</ele>
    <time>2014-01-31T11:33:33Z</time>
    </trkpt>
    <trkpt lat="47.63594028" lon="8.61131584">
    <ele>398</ele>
    <time>2014-01-31T11:34:32Z</time>
    </trkpt>
    <trkpt lat="47.63597195" lon="8.60917556">
    <ele>398</ele>
    <time>2014-01-31T11:35:28Z</time>
    </trkpt>
    <trkpt lat="47.6359825" lon="8.6071575">
    <ele>395</ele>
    <time>2014-01-31T11:36:21Z</time>
    </trkpt>
    <trkpt lat="47.63623056" lon="8.60484584">
    <ele>395</ele>
    <time>2014-01-31T11:37:22Z</time>
    </trkpt>
    <trkpt lat="47.63741723" lon="8.60191084">
    <ele>391</ele>
    <time>2014-01-31T11:38:42Z</time>
    </trkpt>
    <trkpt lat="47.63816945" lon="8.60042584">
    <ele>392</ele>
    <time>2014-01-31T11:39:23Z</time>
    </trkpt>
    <trkpt lat="47.6380475" lon="8.60033945">
    <ele>393</ele>
    <time>2014-01-31T11:39:26Z</time>
    </trkpt>
    <trkpt lat="47.63642945" lon="8.60059084">
    <ele>392</ele>
    <time>2014-01-31T11:39:55Z</time>
    </trkpt>
    <trkpt lat="47.63459556" lon="8.60029">
    <ele>381</ele>
    <time>2014-01-31T11:40:28Z</time>
    </trkpt>
    <trkpt lat="47.63215473" lon="8.60009667">
    <ele>382</ele>
    <time>2014-01-31T11:41:12Z</time>
    </trkpt>
    <trkpt lat="47.63209389" lon="8.59926584">
    <ele>377</ele>
    <time>2014-01-31T11:41:34Z</time>
    </trkpt>
    <trkpt lat="47.63116195" lon="8.5990325">
    <ele>369</ele>
    <time>2014-01-31T11:41:51Z</time>
    </trkpt>
    <trkpt lat="47.63041389" lon="8.59837223">
    <ele>360</ele>
    <time>2014-01-31T11:42:13Z</time>
    </trkpt>
    <trkpt lat="47.62954723" lon="8.59858306">
    <ele>358</ele>
    <time>2014-01-31T11:42:29Z</time>
    </trkpt>
    <trkpt lat="47.62869723" lon="8.59845195">
    <ele>356</ele>
    <time>2014-01-31T11:42:44Z</time>
    </trkpt>
    <trkpt lat="47.62860945" lon="8.59835917">
    <ele>356</ele>
    <time>2014-01-31T11:42:48Z</time>
    </trkpt>
    <trkpt lat="47.62705112" lon="8.59921806">
    <ele>356</ele>
    <time>2014-01-31T11:43:43Z</time>
    </trkpt>
    <trkpt lat="47.62585612" lon="8.59976612">
    <ele>356</ele>
    <time>2014-01-31T11:44:23Z</time>
    </trkpt>
    <trkpt lat="47.62435139" lon="8.60108612">
    <ele>359</ele>
    <time>2014-01-31T11:45:32Z</time>
    </trkpt>
    <trkpt lat="47.62263862" lon="8.60240778">
    <ele>355</ele>
    <time>2014-01-31T11:46:44Z</time>
    </trkpt>
    <trkpt lat="47.62155056" lon="8.60380167">
    <ele>356</ele>
    <time>2014-01-31T11:47:49Z</time>
    </trkpt>
    <trkpt lat="47.62020084" lon="8.60481278">
    <ele>363</ele>
    <time>2014-01-31T11:48:47Z</time>
    </trkpt>
    <trkpt lat="47.61858834" lon="8.60505584">
    <ele>349</ele>
    <time>2014-01-31T11:49:32Z</time>
    </trkpt>
    <trkpt lat="47.61677084" lon="8.60622389">
    <ele>355</ele>
    <time>2014-01-31T11:50:43Z</time>
    </trkpt>
    <trkpt lat="47.61500306" lon="8.60677612">
    <ele>364</ele>
    <time>2014-01-31T11:51:40Z</time>
    </trkpt>
    <trkpt lat="47.61435501" lon="8.60733473">
    <ele>363</ele>
    <time>2014-01-31T11:52:09Z</time>
    </trkpt>
    <trkpt lat="47.61314862" lon="8.60753862">
    <ele>368</ele>
    <time>2014-01-31T11:52:45Z</time>
    </trkpt>
    <trkpt lat="47.61135806" lon="8.60618778">
    <ele>366</ele>
    <time>2014-01-31T11:53:59Z</time>
    </trkpt>
    <trkpt lat="47.60934834" lon="8.60459278">
    <ele>367</ele>
    <time>2014-01-31T11:55:25Z</time>
    </trkpt>
    <trkpt lat="47.60890167" lon="8.60551028">
    <ele>364</ele>
    <time>2014-01-31T11:56:04Z</time>
    </trkpt>
    <trkpt lat="47.60889306" lon="8.60581778">
    <ele>363</ele>
    <time>2014-01-31T11:56:12Z</time>
    </trkpt>
    <trkpt lat="47.60825417" lon="8.60473639">
    <ele>365</ele>
    <time>2014-01-31T11:56:43Z</time>
    </trkpt>
    <trkpt lat="47.60596306" lon="8.602025">
    <ele>366</ele>
    <time>2014-01-31T11:58:05Z</time>
    </trkpt>
    <trkpt lat="47.605115" lon="8.60099056">
    <ele>359</ele>
    <time>2014-01-31T11:58:36Z</time>
    </trkpt>
    <trkpt lat="47.60496445" lon="8.60068112">
    <ele>357</ele>
    <time>2014-01-31T11:58:44Z</time>
    </trkpt>
    <trkpt lat="47.60456501" lon="8.60000889">
    <ele>354</ele>
    <time>2014-01-31T11:59:03Z</time>
    </trkpt>
    <trkpt lat="47.60351306" lon="8.60004639">
    <ele>353</ele>
    <time>2014-01-31T11:59:21Z</time>
    </trkpt>
    <trkpt lat="47.60202806" lon="8.60075251">
    <ele>348</ele>
    <time>2014-01-31T11:59:53Z</time>
    </trkpt>
    <trkpt lat="47.60043389" lon="8.60429334">
    <ele>350</ele>
    <time>2014-01-31T12:01:31Z</time>
    </trkpt>
    <trkpt lat="47.59947612" lon="8.606065">
    <ele>351</ele>
    <time>2014-01-31T12:02:21Z</time>
    </trkpt>
    <trkpt lat="47.59631084" lon="8.60656389">
    <ele>361</ele>
    <time>2014-01-31T12:03:21Z</time>
    </trkpt>
    <trkpt lat="47.59360278" lon="8.60658417">
    <ele>357</ele>
    <time>2014-01-31T12:04:09Z</time>
    </trkpt>
    <trkpt lat="47.58946917" lon="8.60580084">
    <ele>349</ele>
    <time>2014-01-31T12:05:25Z</time>
    </trkpt>
    <trkpt lat="47.58478778" lon="8.60590389">
    <ele>351</ele>
    <time>2014-01-31T12:06:49Z</time>
    </trkpt>
    <trkpt lat="47.58478778" lon="8.60590389">
    <ele>351</ele>
    <time>2014-01-31T12:06:49Z</time>
    </trkpt>
    <trkpt lat="47.58326834" lon="8.60572278">
    <ele>351</ele>
    <time>2014-01-31T12:07:16Z</time>
    </trkpt>
    <trkpt lat="47.58234389" lon="8.60553445">
    <ele>353</ele>
    <time>2014-01-31T12:07:33Z</time>
    </trkpt>
    <trkpt lat="47.58146528" lon="8.60545862">
    <ele>355</ele>
    <time>2014-01-31T12:07:49Z</time>
    </trkpt>
    <trkpt lat="47.57977139" lon="8.60492473">
    <ele>353</ele>
    <time>2014-01-31T12:08:22Z</time>
    </trkpt>
    <trkpt lat="47.57900945" lon="8.60471139">
    <ele>355</ele>
    <time>2014-01-31T12:08:37Z</time>
    </trkpt>
    <trkpt lat="47.57865389" lon="8.60462973">
    <ele>356</ele>
    <time>2014-01-31T12:08:43Z</time>
    </trkpt>
    <trkpt lat="47.57807945" lon="8.60474">
    <ele>357</ele>
    <time>2014-01-31T12:08:53Z</time>
    </trkpt>
    <trkpt lat="47.57697556" lon="8.60530751">
    <ele>358</ele>
    <time>2014-01-31T12:09:18Z</time>
    </trkpt>
    <trkpt lat="47.57675834" lon="8.60537723">
    <ele>358</ele>
    <time>2014-01-31T12:09:22Z</time>
    </trkpt>
    <trkpt lat="47.57660723" lon="8.60535112">
    <ele>358</ele>
    <time>2014-01-31T12:09:24Z</time>
    </trkpt>
    <trkpt lat="47.57647167" lon="8.60504834">
    <ele>357</ele>
    <time>2014-01-31T12:09:32Z</time>
    </trkpt>
    <trkpt lat="47.57633167" lon="8.60435362">
    <ele>357</ele>
    <time>2014-01-31T12:09:50Z</time>
    </trkpt>
    <trkpt lat="47.57624751" lon="8.60209056">
    <ele>353</ele>
    <time>2014-01-31T12:10:49Z</time>
    </trkpt>
    <trkpt lat="47.57553334" lon="8.60206723">
    <ele>354</ele>
    <time>2014-01-31T12:11:02Z</time>
    </trkpt>
    <trkpt lat="47.57459084" lon="8.60245223">
    <ele>359</ele>
    <time>2014-01-31T12:11:22Z</time>
    </trkpt>
    <trkpt lat="47.57456973" lon="8.60246278">
    <ele>359</ele>
    <time>2014-01-31T12:11:22Z</time>
    </trkpt>
    <trkpt lat="47.57336723" lon="8.60307306">
    <ele>376</ele>
    <time>2014-01-31T12:11:52Z</time>
    </trkpt>
    <trkpt lat="47.57322556" lon="8.60304112">
    <ele>378</ele>
    <time>2014-01-31T12:11:55Z</time>
    </trkpt>
    <trkpt lat="47.57256973" lon="8.60247778">
    <ele>381</ele>
    <time>2014-01-31T12:12:14Z</time>
    </trkpt>
    <trkpt lat="47.57160278" lon="8.60100723">
    <ele>392</ele>
    <time>2014-01-31T12:12:59Z</time>
    </trkpt>
    <trkpt lat="47.57096473" lon="8.59970445">
    <ele>400</ele>
    <time>2014-01-31T12:13:37Z</time>
    </trkpt>
    <trkpt lat="47.57082278" lon="8.59925973">
    <ele>403</ele>
    <time>2014-01-31T12:13:49Z</time>
    </trkpt>
    <trkpt lat="47.57077667" lon="8.59868334">
    <ele>404</ele>
    <time>2014-01-31T12:14:04Z</time>
    </trkpt>
    <trkpt lat="47.57073084" lon="8.59851473">
    <ele>404</ele>
    <time>2014-01-31T12:14:08Z</time>
    </trkpt>
    <trkpt lat="47.56976889" lon="8.59807889">
    <ele>412</ele>
    <time>2014-01-31T12:14:30Z</time>
    </trkpt>
    <trkpt lat="47.56970445" lon="8.59722362">
    <ele>412</ele>
    <time>2014-01-31T12:14:52Z</time>
    </trkpt>
    <trkpt lat="47.56949473" lon="8.59674112">
    <ele>411</ele>
    <time>2014-01-31T12:15:05Z</time>
    </trkpt>
    <trkpt lat="47.56935445" lon="8.59635251">
    <ele>411</ele>
    <time>2014-01-31T12:15:15Z</time>
    </trkpt>
    <trkpt lat="47.56966834" lon="8.59479223">
    <ele>417</ele>
    <time>2014-01-31T12:15:58Z</time>
    </trkpt>
    <trkpt lat="47.56968584" lon="8.5946375">
    <ele>418</ele>
    <time>2014-01-31T12:16:02Z</time>
    </trkpt>
    <trkpt lat="47.56918778" lon="8.59303945">
    <ele>421</ele>
    <time>2014-01-31T12:16:45Z</time>
    </trkpt>
    <trkpt lat="47.56899139" lon="8.59125084">
    <ele>422</ele>
    <time>2014-01-31T12:17:32Z</time>
    </trkpt>
    <trkpt lat="47.56908778" lon="8.59033417">
    <ele>424</ele>
    <time>2014-01-31T12:17:56Z</time>
    </trkpt>
    <trkpt lat="47.56890973" lon="8.58738362">
    <ele>420</ele>
    <time>2014-01-31T12:19:14Z</time>
    </trkpt>
    <trkpt lat="47.56890834" lon="8.58736028">
    <ele>420</ele>
    <time>2014-01-31T12:19:14Z</time>
    </trkpt>
    <trkpt lat="47.56865862" lon="8.58436195">
    <ele>430</ele>
    <time>2014-01-31T12:20:35Z</time>
    </trkpt>
    <trkpt lat="47.56846473" lon="8.58195612">
    <ele>436</ele>
    <time>2014-01-31T12:21:40Z</time>
    </trkpt>
    <trkpt lat="47.56850445" lon="8.58063612">
    <ele>442</ele>
    <time>2014-01-31T12:22:16Z</time>
    </trkpt>
    <trkpt lat="47.56877834" lon="8.57900889">
    <ele>441</ele>
    <time>2014-01-31T12:22:59Z</time>
    </trkpt>
    <trkpt lat="47.56867667" lon="8.57850917">
    <ele>440</ele>
    <time>2014-01-31T12:23:12Z</time>
    </trkpt>
    <trkpt lat="47.56850084" lon="8.57816945">
    <ele>441</ele>
    <time>2014-01-31T12:23:21Z</time>
    </trkpt>
    <trkpt lat="47.56818112" lon="8.57801001">
    <ele>444</ele>
    <time>2014-01-31T12:23:28Z</time>
    </trkpt>
    <trkpt lat="47.56782528" lon="8.57760001">
    <ele>449</ele>
    <time>2014-01-31T12:23:41Z</time>
    </trkpt>
    <trkpt lat="47.56772584" lon="8.57740528">
    <ele>454</ele>
    <time>2014-01-31T12:23:47Z</time>
    </trkpt>
    <trkpt lat="47.56769417" lon="8.57718556">
    <ele>454</ele>
    <time>2014-01-31T12:23:52Z</time>
    </trkpt>
    <trkpt lat="47.56784306" lon="8.57586362">
    <ele>445</ele>
    <time>2014-01-31T12:24:27Z</time>
    </trkpt>
    <trkpt lat="47.56790278" lon="8.57510723">
    <ele>441</ele>
    <time>2014-01-31T12:24:47Z</time>
    </trkpt>
    <trkpt lat="47.56786334" lon="8.57453584">
    <ele>437</ele>
    <time>2014-01-31T12:25:02Z</time>
    </trkpt>
    <trkpt lat="47.56760028" lon="8.57428528">
    <ele>436</ele>
    <time>2014-01-31T12:25:10Z</time>
    </trkpt>
    <trkpt lat="47.56739778" lon="8.57421973">
    <ele>439</ele>
    <time>2014-01-31T12:25:14Z</time>
    </trkpt>
    <trkpt lat="47.56721389" lon="8.57433834">
    <ele>442</ele>
    <time>2014-01-31T12:25:19Z</time>
    </trkpt>
    <trkpt lat="47.56649223" lon="8.57498945">
    <ele>445</ele>
    <time>2014-01-31T12:25:41Z</time>
    </trkpt>
    <trkpt lat="47.56589473" lon="8.57534473">
    <ele>450</ele>
    <time>2014-01-31T12:25:56Z</time>
    </trkpt>
    <trkpt lat="47.56519639" lon="8.57547945">
    <ele>445</ele>
    <time>2014-01-31T12:26:08Z</time>
    </trkpt>
    <trkpt lat="47.56450584" lon="8.57527167">
    <ele>441</ele>
    <time>2014-01-31T12:26:21Z</time>
    </trkpt>
    <trkpt lat="47.56388806" lon="8.57547667">
    <ele>450</ele>
    <time>2014-01-31T12:26:35Z</time>
    </trkpt>
    <trkpt lat="47.56343556" lon="8.57506973">
    <ele>450</ele>
    <time>2014-01-31T12:26:48Z</time>
    </trkpt>
    <trkpt lat="47.56330639" lon="8.57394612">
    <ele>450</ele>
    <time>2014-01-31T12:27:17Z</time>
    </trkpt>
    <trkpt lat="47.56348917" lon="8.57272778">
    <ele>447</ele>
    <time>2014-01-31T12:27:49Z</time>
    </trkpt>
    <trkpt lat="47.56355945" lon="8.57152889">
    <ele>440</ele>
    <time>2014-01-31T12:28:20Z</time>
    </trkpt>
    <trkpt lat="47.56349501" lon="8.57095778">
    <ele>429</ele>
    <time>2014-01-31T12:28:35Z</time>
    </trkpt>
    <trkpt lat="47.56329417" lon="8.57066445">
    <ele>426</ele>
    <time>2014-01-31T12:28:43Z</time>
    </trkpt>
    <trkpt lat="47.56302028" lon="8.57083278">
    <ele>433</ele>
    <time>2014-01-31T12:28:51Z</time>
    </trkpt>
    <trkpt lat="47.56203834" lon="8.57187306">
    <ele>450</ele>
    <time>2014-01-31T12:29:27Z</time>
    </trkpt>
    <trkpt lat="47.56150251" lon="8.57202501">
    <ele>450</ele>
    <time>2014-01-31T12:29:37Z</time>
    </trkpt>
    <trkpt lat="47.56090028" lon="8.57120028">
    <ele>436</ele>
    <time>2014-01-31T12:30:01Z</time>
    </trkpt>
    <trkpt lat="47.55995056" lon="8.5708025">
    <ele>443</ele>
    <time>2014-01-31T12:30:22Z</time>
    </trkpt>
    <trkpt lat="47.55948945" lon="8.57091695">
    <ele>447</ele>
    <time>2014-01-31T12:30:31Z</time>
    </trkpt>
    <trkpt lat="47.559115" lon="8.57093834">
    <ele>450</ele>
    <time>2014-01-31T12:30:38Z</time>
    </trkpt>
    <trkpt lat="47.55893889" lon="8.57053417">
    <ele>454</ele>
    <time>2014-01-31T12:30:50Z</time>
    </trkpt>
    <trkpt lat="47.55917278" lon="8.56968417">
    <ele>453</ele>
    <time>2014-01-31T12:31:12Z</time>
    </trkpt>
    <trkpt lat="47.55973195" lon="8.56905306">
    <ele>431</ele>
    <time>2014-01-31T12:31:31Z</time>
    </trkpt>
    <trkpt lat="47.55972945" lon="8.56840778">
    <ele>426</ele>
    <time>2014-01-31T12:31:48Z</time>
    </trkpt>
    <trkpt lat="47.55940195" lon="8.56761778">
    <ele>420</ele>
    <time>2014-01-31T12:32:09Z</time>
    </trkpt>
    <trkpt lat="47.55877806" lon="8.56758612">
    <ele>423</ele>
    <time>2014-01-31T12:32:20Z</time>
    </trkpt>
    <trkpt lat="47.55824056" lon="8.56731389">
    <ele>425</ele>
    <time>2014-01-31T12:32:32Z</time>
    </trkpt>
    <trkpt lat="47.55811195" lon="8.56637501">
    <ele>411</ele>
    <time>2014-01-31T12:32:56Z</time>
    </trkpt>
    <trkpt lat="47.55783612" lon="8.56600834">
    <ele>408</ele>
    <time>2014-01-31T12:33:06Z</time>
    </trkpt>
    <trkpt lat="47.55717278" lon="8.5654425">
    <ele>407</ele>
    <time>2014-01-31T12:33:25Z</time>
    </trkpt>
    <trkpt lat="47.55674862" lon="8.56546445">
    <ele>408</ele>
    <time>2014-01-31T12:33:32Z</time>
    </trkpt>
    <trkpt lat="47.55617806" lon="8.5663725">
    <ele>420</ele>
    <time>2014-01-31T12:34:00Z</time>
    </trkpt>
    <trkpt lat="47.55586639" lon="8.56650417">
    <ele>422</ele>
    <time>2014-01-31T12:34:07Z</time>
    </trkpt>
    <trkpt lat="47.5555275" lon="8.56595389">
    <ele>413</ele>
    <time>2014-01-31T12:34:22Z</time>
    </trkpt>
    <trkpt lat="47.55517528" lon="8.56518251">
    <ele>404</ele>
    <time>2014-01-31T12:34:43Z</time>
    </trkpt>
    <trkpt lat="47.55361584" lon="8.56528751">
    <ele>412</ele>
    <time>2014-01-31T12:35:12Z</time>
    </trkpt>
    <trkpt lat="47.55306223" lon="8.56529223">
    <ele>415</ele>
    <time>2014-01-31T12:35:22Z</time>
    </trkpt>
    <trkpt lat="47.55158195" lon="8.56530445">
    <ele>418</ele>
    <time>2014-01-31T12:35:49Z</time>
    </trkpt>
    <trkpt lat="47.54963473" lon="8.56597806">
    <ele>419</ele>
    <time>2014-01-31T12:36:28Z</time>
    </trkpt>
    <trkpt lat="47.54963473" lon="8.56597806">
    <ele>419</ele>
    <time>2014-01-31T12:36:28Z</time>
    </trkpt>
    <trkpt lat="47.54923362" lon="8.56386889">
    <ele>409</ele>
    <time>2014-01-31T12:37:24Z</time>
    </trkpt>
    <trkpt lat="47.54917723" lon="8.56145723">
    <ele>384</ele>
    <time>2014-01-31T12:38:27Z</time>
    </trkpt>
    <trkpt lat="47.54929751" lon="8.56075334">
    <ele>374</ele>
    <time>2014-01-31T12:38:45Z</time>
    </trkpt>
    <trkpt lat="47.54972917" lon="8.55981139">
    <ele>371</ele>
    <time>2014-01-31T12:39:11Z</time>
    </trkpt>
    <trkpt lat="47.55021306" lon="8.55895834">
    <ele>369</ele>
    <time>2014-01-31T12:39:35Z</time>
    </trkpt>
    <trkpt lat="47.55004862" lon="8.55737389">
    <ele>361</ele>
    <time>2014-01-31T12:40:17Z</time>
    </trkpt>
    <trkpt lat="47.55022973" lon="8.55649334">
    <ele>359</ele>
    <time>2014-01-31T12:40:40Z</time>
    </trkpt>
    <trkpt lat="47.55054084" lon="8.55583834">
    <ele>359</ele>
    <time>2014-01-31T12:40:58Z</time>
    </trkpt>
    <trkpt lat="47.55082639" lon="8.55522389">
    <ele>361</ele>
    <time>2014-01-31T12:41:15Z</time>
    </trkpt>
    <trkpt lat="47.55125945" lon="8.55496028">
    <ele>360</ele>
    <time>2014-01-31T12:41:25Z</time>
    </trkpt>
    <trkpt lat="47.55144473" lon="8.55488834">
    <ele>358</ele>
    <time>2014-01-31T12:41:28Z</time>
    </trkpt>
    <trkpt lat="47.55167945" lon="8.55487445">
    <ele>356</ele>
    <time>2014-01-31T12:41:34Z</time>
    </trkpt>
    <trkpt lat="47.55189639" lon="8.55351584">
    <ele>374</ele>
    <time>2014-01-31T12:42:36Z</time>
    </trkpt>
    <trkpt lat="47.55288139" lon="8.55295889">
    <ele>360</ele>
    <time>2014-01-31T12:43:11Z</time>
    </trkpt>
    <trkpt lat="47.55329862" lon="8.55233">
    <ele>361</ele>
    <time>2014-01-31T12:43:39Z</time>
    </trkpt>
    <trkpt lat="47.55416945" lon="8.55164723">
    <ele>360</ele>
    <time>2014-01-31T12:44:16Z</time>
    </trkpt>
    <trkpt lat="47.55437695" lon="8.55149167">
    <ele>361</ele>
    <time>2014-01-31T12:44:24Z</time>
    </trkpt>
    <trkpt lat="47.55531084" lon="8.55071473">
    <ele>366</ele>
    <time>2014-01-31T12:45:07Z</time>
    </trkpt>
    <trkpt lat="47.55619028" lon="8.54940028">
    <ele>402</ele>
    <time>2014-01-31T12:46:19Z</time>
    </trkpt>
    <trkpt lat="47.55668389" lon="8.54942362">
    <ele>394</ele>
    <time>2014-01-31T12:46:32Z</time>
    </trkpt>
    <trkpt lat="47.55671112" lon="8.54947278">
    <ele>388</ele>
    <time>2014-01-31T12:46:33Z</time>
    </trkpt>
    <trkpt lat="47.55733501" lon="8.54931362">
    <ele>388</ele>
    <time>2014-01-31T12:46:44Z</time>
    </trkpt>
    <trkpt lat="47.56039667" lon="8.5470575">
    <ele>392</ele>
    <time>2014-01-31T12:48:06Z</time>
    </trkpt>
    <trkpt lat="47.56127862" lon="8.54635806">
    <ele>392</ele>
    <time>2014-01-31T12:48:30Z</time>
    </trkpt>
    <trkpt lat="47.56165612" lon="8.54628862">
    <ele>388</ele>
    <time>2014-01-31T12:48:36Z</time>
    </trkpt>
    <trkpt lat="47.56169473" lon="8.54627751">
    <ele>386</ele>
    <time>2014-01-31T12:48:36Z</time>
    </trkpt>
    <trkpt lat="47.56373778" lon="8.54533973">
    <ele>386</ele>
    <time>2014-01-31T12:49:20Z</time>
    </trkpt>
    <trkpt lat="47.56537945" lon="8.54363112">
    <ele>386</ele>
    <time>2014-01-31T12:50:13Z</time>
    </trkpt>
    <trkpt lat="47.56595889" lon="8.54309084">
    <ele>386</ele>
    <time>2014-01-31T12:50:30Z</time>
    </trkpt>
    <trkpt lat="47.56621917" lon="8.54294251">
    <ele>386</ele>
    <time>2014-01-31T12:50:36Z</time>
    </trkpt>
    <trkpt lat="47.56762028" lon="8.54189223">
    <ele>387</ele>
    <time>2014-01-31T12:51:13Z</time>
    </trkpt>
    <trkpt lat="47.56784917" lon="8.54136862">
    <ele>387</ele>
    <time>2014-01-31T12:51:27Z</time>
    </trkpt>
    <trkpt lat="47.56791695" lon="8.54099834">
    <ele>387</ele>
    <time>2014-01-31T12:51:36Z</time>
    </trkpt>
    <trkpt lat="47.56823167" lon="8.54065528">
    <ele>385</ele>
    <time>2014-01-31T12:51:46Z</time>
    </trkpt>
    <trkpt lat="47.56918389" lon="8.53903389">
    <ele>386</ele>
    <time>2014-01-31T12:52:32Z</time>
    </trkpt>
    <trkpt lat="47.5703525" lon="8.53728612">
    <ele>382</ele>
    <time>2014-01-31T12:53:22Z</time>
    </trkpt>
    <trkpt lat="47.57110278" lon="8.53554167">
    <ele>384</ele>
    <time>2014-01-31T12:54:10Z</time>
    </trkpt>
    <trkpt lat="47.57166667" lon="8.53319917">
    <ele>391</ele>
    <time>2014-01-31T12:55:14Z</time>
    </trkpt>
    <trkpt lat="47.57211862" lon="8.53015556">
    <ele>384</ele>
    <time>2014-01-31T12:56:35Z</time>
    </trkpt>
    <trkpt lat="47.57110112" lon="8.52996945">
    <ele>388</ele>
    <time>2014-01-31T12:56:54Z</time>
    </trkpt>
    <trkpt lat="47.57099556" lon="8.52941778">
    <ele>387</ele>
    <time>2014-01-31T12:57:08Z</time>
    </trkpt>
    <trkpt lat="47.57093612" lon="8.5278175">
    <ele>387</ele>
    <time>2014-01-31T12:57:50Z</time>
    </trkpt>
    <trkpt lat="47.57056528" lon="8.52620584">
    <ele>388</ele>
    <time>2014-01-31T12:58:33Z</time>
    </trkpt>
    <trkpt lat="47.57016973" lon="8.52361834">
    <ele>385</ele>
    <time>2014-01-31T12:59:41Z</time>
    </trkpt>
    <trkpt lat="47.56955112" lon="8.52335028">
    <ele>388</ele>
    <time>2014-01-31T12:59:54Z</time>
    </trkpt>
    <trkpt lat="47.5693025" lon="8.52291028">
    <ele>393</ele>
    <time>2014-01-31T13:00:07Z</time>
    </trkpt>
    <trkpt lat="47.56921195" lon="8.52256334">
    <ele>393</ele>
    <time>2014-01-31T13:00:16Z</time>
    </trkpt>
    <trkpt lat="47.56998112" lon="8.52262139">
    <ele>388</ele>
    <time>2014-01-31T13:00:29Z</time>
    </trkpt>
    <trkpt lat="47.57010362" lon="8.52223612">
    <ele>388</ele>
    <time>2014-01-31T13:00:39Z</time>
    </trkpt>
    <trkpt lat="47.57031723" lon="8.52184139">
    <ele>390</ele>
    <time>2014-01-31T13:00:50Z</time>
    </trkpt>
    <trkpt lat="47.57140723" lon="8.52007389">
    <ele>391</ele>
    <time>2014-01-31T13:01:40Z</time>
    </trkpt>
    <trkpt lat="47.57256612" lon="8.51732167">
    <ele>392</ele>
    <time>2014-01-31T13:02:56Z</time>
    </trkpt>
    <trkpt lat="47.57279167" lon="8.51704195">
    <ele>388</ele>
    <time>2014-01-31T13:03:04Z</time>
    </trkpt>
    <trkpt lat="47.573215" lon="8.51527806">
    <ele>388</ele>
    <time>2014-01-31T13:03:51Z</time>
    </trkpt>
    <trkpt lat="47.57314278" lon="8.51481167">
    <ele>389</ele>
    <time>2014-01-31T13:04:03Z</time>
    </trkpt>
    <trkpt lat="47.57362417" lon="8.51256445">
    <ele>387</ele>
    <time>2014-01-31T13:05:03Z</time>
    </trkpt>
    <trkpt lat="47.57421001" lon="8.51282084">
    <ele>384</ele>
    <time>2014-01-31T13:05:15Z</time>
    </trkpt>
    <trkpt lat="47.57464806" lon="8.51301028">
    <ele>381</ele>
    <time>2014-01-31T13:05:24Z</time>
    </trkpt>
    <trkpt lat="47.57486056" lon="8.51264028">
    <ele>381</ele>
    <time>2014-01-31T13:05:34Z</time>
    </trkpt>
    <trkpt lat="47.57515917" lon="8.51283334">
    <ele>382</ele>
    <time>2014-01-31T13:05:41Z</time>
    </trkpt>
    <trkpt lat="47.57597112" lon="8.51007001">
    <ele>385</ele>
    <time>2014-01-31T13:06:56Z</time>
    </trkpt>
    <trkpt lat="47.57598556" lon="8.51001139">
    <ele>385</ele>
    <time>2014-01-31T13:06:57Z</time>
    </trkpt>
    <trkpt lat="47.57611667" lon="8.50940751">
    <ele>379</ele>
    <time>2014-01-31T13:07:13Z</time>
    </trkpt>
    <trkpt lat="47.57613445" lon="8.50937556">
    <ele>379</ele>
    <time>2014-01-31T13:07:13Z</time>
    </trkpt>
    <trkpt lat="47.57625223" lon="8.50859695">
    <ele>377</ele>
    <time>2014-01-31T13:07:33Z</time>
    </trkpt>
    <trkpt lat="47.5760175" lon="8.5062875">
    <ele>379</ele>
    <time>2014-01-31T13:08:34Z</time>
    </trkpt>
    <trkpt lat="47.57638806" lon="8.50462806">
    <ele>377</ele>
    <time>2014-01-31T13:09:18Z</time>
    </trkpt>
    <trkpt lat="47.57690001" lon="8.50282778">
    <ele>376</ele>
    <time>2014-01-31T13:10:06Z</time>
    </trkpt>
    <trkpt lat="47.57791695" lon="8.50120834">
    <ele>366</ele>
    <time>2014-01-31T13:10:52Z</time>
    </trkpt>
    <trkpt lat="47.57833056" lon="8.50004084">
    <ele>358</ele>
    <time>2014-01-31T13:11:23Z</time>
    </trkpt>
    <trkpt lat="47.57832584" lon="8.49910862">
    <ele>353</ele>
    <time>2014-01-31T13:11:47Z</time>
    </trkpt>
    <trkpt lat="47.57829445" lon="8.49885695">
    <ele>352</ele>
    <time>2014-01-31T13:11:53Z</time>
    </trkpt>
    <trkpt lat="47.57794917" lon="8.49648334">
    <ele>353</ele>
    <time>2014-01-31T13:12:56Z</time>
    </trkpt>
    <trkpt lat="47.57793473" lon="8.4963">
    <ele>353</ele>
    <time>2014-01-31T13:13:00Z</time>
    </trkpt>
    <trkpt lat="47.57770056" lon="8.49424195">
    <ele>357</ele>
    <time>2014-01-31T13:13:55Z</time>
    </trkpt>
    <trkpt lat="47.57772501" lon="8.49395">
    <ele>357</ele>
    <time>2014-01-31T13:14:02Z</time>
    </trkpt>
    <trkpt lat="47.57773028" lon="8.49244139">
    <ele>352</ele>
    <time>2014-01-31T13:14:41Z</time>
    </trkpt>
    <trkpt lat="47.57767889" lon="8.49161862">
    <ele>350</ele>
    <time>2014-01-31T13:15:02Z</time>
    </trkpt>
    <trkpt lat="47.57759223" lon="8.49041334">
    <ele>347</ele>
    <time>2014-01-31T13:15:33Z</time>
    </trkpt>
    <trkpt lat="47.57697528" lon="8.48898056">
    <ele>350</ele>
    <time>2014-01-31T13:16:13Z</time>
    </trkpt>
    <trkpt lat="47.57668695" lon="8.48725167">
    <ele>356</ele>
    <time>2014-01-31T13:17:00Z</time>
    </trkpt>
    <trkpt lat="47.57643528" lon="8.48635167">
    <ele>365</ele>
    <time>2014-01-31T13:17:26Z</time>
    </trkpt>
    <trkpt lat="47.57626556" lon="8.48528">
    <ele>370</ele>
    <time>2014-01-31T13:17:55Z</time>
    </trkpt>
    <trkpt lat="47.57630778" lon="8.48371862">
    <ele>372</ele>
    <time>2014-01-31T13:18:36Z</time>
    </trkpt>
    <trkpt lat="47.57669112" lon="8.48083695">
    <ele>363</ele>
    <time>2014-01-31T13:19:52Z</time>
    </trkpt>
    <trkpt lat="47.57667195" lon="8.48027612">
    <ele>357</ele>
    <time>2014-01-31T13:20:06Z</time>
    </trkpt>
    <trkpt lat="47.5763475" lon="8.47921139">
    <ele>354</ele>
    <time>2014-01-31T13:20:34Z</time>
    </trkpt>
    <trkpt lat="47.57628667" lon="8.47901167">
    <ele>354</ele>
    <time>2014-01-31T13:20:39Z</time>
    </trkpt>
    <trkpt lat="47.57536917" lon="8.47689889">
    <ele>355</ele>
    <time>2014-01-31T13:21:37Z</time>
    </trkpt>
    <trkpt lat="47.57518084" lon="8.47659806">
    <ele>354</ele>
    <time>2014-01-31T13:21:45Z</time>
    </trkpt>
    <trkpt lat="47.57509834" lon="8.47626751">
    <ele>352</ele>
    <time>2014-01-31T13:21:53Z</time>
    </trkpt>
    <trkpt lat="47.57458667" lon="8.47472695">
    <ele>350</ele>
    <time>2014-01-31T13:22:34Z</time>
    </trkpt>
    <trkpt lat="47.57443306" lon="8.47424973">
    <ele>352</ele>
    <time>2014-01-31T13:22:47Z</time>
    </trkpt>
    <trkpt lat="47.57427639" lon="8.47397917">
    <ele>353</ele>
    <time>2014-01-31T13:22:54Z</time>
    </trkpt>
    <trkpt lat="47.57427639" lon="8.47397917">
    <ele>353</ele>
    <time>2014-01-31T13:22:54Z</time>
    </trkpt>
    <trkpt lat="47.57409889" lon="8.47399501">
    <ele>354</ele>
    <time>2014-01-31T13:22:57Z</time>
    </trkpt>
    <trkpt lat="47.57366889" lon="8.47442723">
    <ele>356</ele>
    <time>2014-01-31T13:23:11Z</time>
    </trkpt>
    <trkpt lat="47.57349751" lon="8.47450139">
    <ele>358</ele>
    <time>2014-01-31T13:23:15Z</time>
    </trkpt>
    <trkpt lat="47.57336084" lon="8.47438251">
    <ele>359</ele>
    <time>2014-01-31T13:23:19Z</time>
    </trkpt>
    <trkpt lat="47.5731025" lon="8.47373306">
    <ele>360</ele>
    <time>2014-01-31T13:23:37Z</time>
    </trkpt>
    <trkpt lat="47.57244251" lon="8.47207473">
    <ele>361</ele>
    <time>2014-01-31T13:24:22Z</time>
    </trkpt>
    <trkpt lat="47.57205445" lon="8.47124389">
    <ele>363</ele>
    <time>2014-01-31T13:24:45Z</time>
    </trkpt>
    <trkpt lat="47.57187473" lon="8.47119667">
    <ele>365</ele>
    <time>2014-01-31T13:24:48Z</time>
    </trkpt>
    <trkpt lat="47.57183362" lon="8.47124306">
    <ele>365</ele>
    <time>2014-01-31T13:24:49Z</time>
    </trkpt>
    <trkpt lat="47.57141084" lon="8.47149945">
    <ele>366</ele>
    <time>2014-01-31T13:24:59Z</time>
    </trkpt>
    <trkpt lat="47.57134084" lon="8.47152389">
    <ele>367</ele>
    <time>2014-01-31T13:25:00Z</time>
    </trkpt>
    <trkpt lat="47.5706425" lon="8.47187362">
    <ele>368</ele>
    <time>2014-01-31T13:25:15Z</time>
    </trkpt>
    <trkpt lat="47.5697" lon="8.47185028">
    <ele>370</ele>
    <time>2014-01-31T13:25:32Z</time>
    </trkpt>
    <trkpt lat="47.56907528" lon="8.47201112">
    <ele>372</ele>
    <time>2014-01-31T13:25:44Z</time>
    </trkpt>
    <trkpt lat="47.56837778" lon="8.47219473">
    <ele>373</ele>
    <time>2014-01-31T13:25:57Z</time>
    </trkpt>
    <trkpt lat="47.56822667" lon="8.47229501">
    <ele>373</ele>
    <time>2014-01-31T13:26:00Z</time>
    </trkpt>
    <trkpt lat="47.56816528" lon="8.47232889">
    <ele>373</ele>
    <time>2014-01-31T13:26:01Z</time>
    </trkpt>
    <trkpt lat="47.56774334" lon="8.4726">
    <ele>376</ele>
    <time>2014-01-31T13:26:12Z</time>
    </trkpt>
    <trkpt lat="47.56729834" lon="8.47299251">
    <ele>378</ele>
    <time>2014-01-31T13:26:25Z</time>
    </trkpt>
    <trkpt lat="47.56719973" lon="8.47255139">
    <ele>377</ele>
    <time>2014-01-31T13:26:36Z</time>
    </trkpt>
    <trkpt lat="47.56719667" lon="8.47229084">
    <ele>375</ele>
    <time>2014-01-31T13:26:42Z</time>
    </trkpt>
    <trkpt lat="47.56709917" lon="8.47219084">
    <ele>375</ele>
    <time>2014-01-31T13:26:45Z</time>
    </trkpt>
    <trkpt lat="47.56703639" lon="8.47227584">
    <ele>375</ele>
    <time>2014-01-31T13:26:47Z</time>
    </trkpt>
    <trkpt lat="47.56699112" lon="8.47252917">
    <ele>376</ele>
    <time>2014-01-31T13:26:53Z</time>
    </trkpt>
    <trkpt lat="47.56694056" lon="8.47288112">
    <ele>377</ele>
    <time>2014-01-31T13:27:02Z</time>
    </trkpt>
    <trkpt lat="47.56656112" lon="8.47299195">
    <ele>376</ele>
    <time>2014-01-31T13:27:09Z</time>
    </trkpt>
    <trkpt lat="47.56656973" lon="8.47254473">
    <ele>375</ele>
    <time>2014-01-31T13:27:20Z</time>
    </trkpt>
    <trkpt lat="47.56660417" lon="8.47240778">
    <ele>374</ele>
    <time>2014-01-31T13:27:23Z</time>
    </trkpt>
    <trkpt lat="47.56634362" lon="8.46896639">
    <ele>373</ele>
    <time>2014-01-31T13:28:54Z</time>
    </trkpt>
    <trkpt lat="47.56608278" lon="8.46798584">
    <ele>374</ele>
    <time>2014-01-31T13:29:20Z</time>
    </trkpt>
    <trkpt lat="47.56514028" lon="8.46624639">
    <ele>378</ele>
    <time>2014-01-31T13:30:10Z</time>
    </trkpt>
    <trkpt lat="47.56405973" lon="8.46454167">
    <ele>376</ele>
    <time>2014-01-31T13:30:59Z</time>
    </trkpt>
    <trkpt lat="47.56343278" lon="8.46296278">
    <ele>376</ele>
    <time>2014-01-31T13:31:42Z</time>
    </trkpt>
    <trkpt lat="47.56330362" lon="8.46168723">
    <ele>384</ele>
    <time>2014-01-31T13:32:17Z</time>
    </trkpt>
    <trkpt lat="47.56331806" lon="8.45943945">
    <ele>384</ele>
    <time>2014-01-31T13:33:16Z</time>
    </trkpt>
    <trkpt lat="47.56309445" lon="8.45760195">
    <ele>374</ele>
    <time>2014-01-31T13:34:04Z</time>
    </trkpt>
    <trkpt lat="47.56293834" lon="8.45641584">
    <ele>374</ele>
    <time>2014-01-31T13:34:35Z</time>
    </trkpt>
    <trkpt lat="47.56280612" lon="8.45491945">
    <ele>374</ele>
    <time>2014-01-31T13:35:14Z</time>
    </trkpt>
    <trkpt lat="47.5624275" lon="8.45290834">
    <ele>377</ele>
    <time>2014-01-31T13:36:08Z</time>
    </trkpt>
    <trkpt lat="47.56202084" lon="8.45113028">
    <ele>377</ele>
    <time>2014-01-31T13:36:55Z</time>
    </trkpt>
    <trkpt lat="47.56082362" lon="8.44716556">
    <ele>374</ele>
    <time>2014-01-31T13:38:42Z</time>
    </trkpt>
    <trkpt lat="47.56049306" lon="8.44598723">
    <ele>373</ele>
    <time>2014-01-31T13:39:13Z</time>
    </trkpt>
    <trkpt lat="47.56035167" lon="8.44406334">
    <ele>369</ele>
    <time>2014-01-31T13:40:04Z</time>
    </trkpt>
    <trkpt lat="47.56005" lon="8.44073112">
    <ele>369</ele>
    <time>2014-01-31T13:41:32Z</time>
    </trkpt>
    <trkpt lat="47.55998167" lon="8.44000417">
    <ele>368</ele>
    <time>2014-01-31T13:41:51Z</time>
    </trkpt>
    <trkpt lat="47.55982056" lon="8.43937001">
    <ele>369</ele>
    <time>2014-01-31T13:42:08Z</time>
    </trkpt>
    <trkpt lat="47.55837556" lon="8.43643528">
    <ele>378</ele>
    <time>2014-01-31T13:43:32Z</time>
    </trkpt>
    <trkpt lat="47.55842139" lon="8.436395">
    <ele>378</ele>
    <time>2014-01-31T13:43:33Z</time>
    </trkpt>
    <trkpt lat="47.55850612" lon="8.43631667">
    <ele>378</ele>
    <time>2014-01-31T13:43:35Z</time>
    </trkpt>
    <trkpt lat="47.55863612" lon="8.43627695">
    <ele>378</ele>
    <time>2014-01-31T13:43:38Z</time>
    </trkpt>
    <trkpt lat="47.55999112" lon="8.43610639">
    <ele>374</ele>
    <time>2014-01-31T13:44:16Z</time>
    </trkpt>
    <trkpt lat="47.56012973" lon="8.43592389">
    <ele>372</ele>
    <time>2014-01-31T13:44:24Z</time>
    </trkpt>
    <trkpt lat="47.56022917" lon="8.43537001">
    <ele>370</ele>
    <time>2014-01-31T13:44:46Z</time>
    </trkpt>
    <trkpt lat="47.56047834" lon="8.43489639">
    <ele>368</ele>
    <time>2014-01-31T13:45:06Z</time>
    </trkpt>
    <trkpt lat="47.56094306" lon="8.43457639">
    <ele>368</ele>
    <time>2014-01-31T13:45:24Z</time>
    </trkpt>
    <trkpt lat="47.56084917" lon="8.43455751">
    <ele>367</ele>
    <time>2014-01-31T13:45:25Z</time>
    </trkpt>
    <trkpt lat="47.56128362" lon="8.43454362">
    <ele>370</ele>
    <time>2014-01-31T13:45:33Z</time>
    </trkpt>
    <trkpt lat="47.56127528" lon="8.43428639">
    <ele>369</ele>
    <time>2014-01-31T13:45:43Z</time>
    </trkpt>
    <trkpt lat="47.56137778" lon="8.43339056">
    <ele>369</ele>
    <time>2014-01-31T13:46:20Z</time>
    </trkpt>
    <trkpt lat="47.56151223" lon="8.43310195">
    <ele>371</ele>
    <time>2014-01-31T13:46:33Z</time>
    </trkpt>
    <trkpt lat="47.56157084" lon="8.43266334">
    <ele>371</ele>
    <time>2014-01-31T13:46:51Z</time>
    </trkpt>
    <trkpt lat="47.56139945" lon="8.43226473">
    <ele>370</ele>
    <time>2014-01-31T13:47:08Z</time>
    </trkpt>
    <trkpt lat="47.56240084" lon="8.42934889">
    <ele>372</ele>
    <time>2014-01-31T13:49:12Z</time>
    </trkpt>
    <trkpt lat="47.56403834" lon="8.42531389">
    <ele>371</ele>
    <time>2014-01-31T13:52:04Z</time>
    </trkpt>
    <trkpt lat="47.56445251" lon="8.42436139">
    <ele>372</ele>
    <time>2014-01-31T13:52:45Z</time>
    </trkpt>
    <trkpt lat="47.56674834" lon="8.41870028">
    <ele>370</ele>
    <time>2014-01-31T13:56:46Z</time>
    </trkpt>
    <trkpt lat="47.56685945" lon="8.41834028">
    <ele>369</ele>
    <time>2014-01-31T13:56:55Z</time>
    </trkpt>
    <trkpt lat="47.56664028" lon="8.41810639">
    <ele>368</ele>
    <time>2014-01-31T13:57:02Z</time>
    </trkpt>
    <trkpt lat="47.56646806" lon="8.41768028">
    <ele>367</ele>
    <time>2014-01-31T13:57:13Z</time>
    </trkpt>
    <trkpt lat="47.56639639" lon="8.41763278">
    <ele>367</ele>
    <time>2014-01-31T13:57:14Z</time>
    </trkpt>
    <trkpt lat="47.56610862" lon="8.41746278">
    <ele>367</ele>
    <time>2014-01-31T13:57:20Z</time>
    </trkpt>
    <trkpt lat="47.56646417" lon="8.41709278">
    <ele>367</ele>
    <time>2014-01-31T13:57:31Z</time>
    </trkpt>
    <trkpt lat="47.56587417" lon="8.41651445">
    <ele>368</ele>
    <time>2014-01-31T13:57:49Z</time>
    </trkpt>
    <trkpt lat="47.56550056" lon="8.41613417">
    <ele>367</ele>
    <time>2014-01-31T13:58:01Z</time>
    </trkpt>
    <trkpt lat="47.56553389" lon="8.41625667">
    <ele>367</ele>
    <time>2014-01-31T13:58:04Z</time>
    </trkpt>
    <trkpt lat="47.56586556" lon="8.41544778">
    <ele>369</ele>
    <time>2014-01-31T13:58:26Z</time>
    </trkpt>
    <trkpt lat="47.56722945" lon="8.41116306">
    <ele>368</ele>
    <time>2014-01-31T14:00:22Z</time>
    </trkpt>
    <trkpt lat="47.56749556" lon="8.40995528">
    <ele>364</ele>
    <time>2014-01-31T14:00:54Z</time>
    </trkpt>
    <trkpt lat="47.56752139" lon="8.40865389">
    <ele>368</ele>
    <time>2014-01-31T14:01:29Z</time>
    </trkpt>
    <trkpt lat="47.56767862" lon="8.40735695">
    <ele>370</ele>
    <time>2014-01-31T14:02:03Z</time>
    </trkpt>
    <trkpt lat="47.56806195" lon="8.40637778">
    <ele>374</ele>
    <time>2014-01-31T14:02:30Z</time>
    </trkpt>
    <trkpt lat="47.56842889" lon="8.40605556">
    <ele>374</ele>
    <time>2014-01-31T14:02:40Z</time>
    </trkpt>
    <trkpt lat="47.56883223" lon="8.40549028">
    <ele>376</ele>
    <time>2014-01-31T14:02:57Z</time>
    </trkpt>
    <trkpt lat="47.56944334" lon="8.40489167">
    <ele>377</ele>
    <time>2014-01-31T14:03:16Z</time>
    </trkpt>
    <trkpt lat="47.57077806" lon="8.40435195">
    <ele>371</ele>
    <time>2014-01-31T14:03:43Z</time>
    </trkpt>
    <trkpt lat="47.57143084" lon="8.40425945">
    <ele>367</ele>
    <time>2014-01-31T14:03:54Z</time>
    </trkpt>
    <trkpt lat="47.57197806" lon="8.40454917">
    <ele>362</ele>
    <time>2014-01-31T14:04:06Z</time>
    </trkpt>
    <trkpt lat="47.57243112" lon="8.40483334">
    <ele>360</ele>
    <time>2014-01-31T14:04:17Z</time>
    </trkpt>
    <trkpt lat="47.57271723" lon="8.40482084">
    <ele>359</ele>
    <time>2014-01-31T14:04:22Z</time>
    </trkpt>
    <trkpt lat="47.57271778" lon="8.40485806">
    <ele>359</ele>
    <time>2014-01-31T14:04:22Z</time>
    </trkpt>
    <trkpt lat="47.57304612" lon="8.40494028">
    <ele>358</ele>
    <time>2014-01-31T14:04:28Z</time>
    </trkpt>
    <trkpt lat="47.57343806" lon="8.40479195">
    <ele>356</ele>
    <time>2014-01-31T14:04:36Z</time>
    </trkpt>
    <trkpt lat="47.57367695" lon="8.40482362">
    <ele>354</ele>
    <time>2014-01-31T14:04:40Z</time>
    </trkpt>
    <trkpt lat="47.57453639" lon="8.40333695">
    <ele>354</ele>
    <time>2014-01-31T14:05:22Z</time>
    </trkpt>
    <trkpt lat="47.57503639" lon="8.40203723">
    <ele>356</ele>
    <time>2014-01-31T14:05:58Z</time>
    </trkpt>
    <trkpt lat="47.57549695" lon="8.40032917">
    <ele>359</ele>
    <time>2014-01-31T14:06:44Z</time>
    </trkpt>
    <trkpt lat="47.57555" lon="8.39876389">
    <ele>353</ele>
    <time>2014-01-31T14:07:25Z</time>
    </trkpt>
    <trkpt lat="47.57514695" lon="8.39620028">
    <ele>348</ele>
    <time>2014-01-31T14:08:33Z</time>
    </trkpt>
    <trkpt lat="47.57464251" lon="8.39383862">
    <ele>350</ele>
    <time>2014-01-31T14:09:36Z</time>
    </trkpt>
    <trkpt lat="47.57294584" lon="8.39139862">
    <ele>347</ele>
    <time>2014-01-31T14:10:47Z</time>
    </trkpt>
    <trkpt lat="47.57152667" lon="8.38976917">
    <ele>355</ele>
    <time>2014-01-31T14:11:38Z</time>
    </trkpt>
    <trkpt lat="47.5694975" lon="8.38862445">
    <ele>355</ele>
    <time>2014-01-31T14:12:25Z</time>
    </trkpt>
    <trkpt lat="47.56746195" lon="8.38785695">
    <ele>354</ele>
    <time>2014-01-31T14:13:06Z</time>
    </trkpt>
    <trkpt lat="47.56609112" lon="8.38664473">
    <ele>359</ele>
    <time>2014-01-31T14:13:47Z</time>
    </trkpt>
    <trkpt lat="47.56494417" lon="8.38455556">
    <ele>354</ele>
    <time>2014-01-31T14:14:46Z</time>
    </trkpt>
    <trkpt lat="47.5646675" lon="8.38267862">
    <ele>348</ele>
    <time>2014-01-31T14:15:35Z</time>
    </trkpt>
    <trkpt lat="47.56469917" lon="8.38226028">
    <ele>347</ele>
    <time>2014-01-31T14:15:46Z</time>
    </trkpt>
    <trkpt lat="47.56461334" lon="8.38215973">
    <ele>347</ele>
    <time>2014-01-31T14:15:49Z</time>
    </trkpt>
    <trkpt lat="47.56459278" lon="8.38102362">
    <ele>350</ele>
    <time>2014-01-31T14:16:19Z</time>
    </trkpt>
    <trkpt lat="47.56488834" lon="8.38013889">
    <ele>349</ele>
    <time>2014-01-31T14:16:43Z</time>
    </trkpt>
    <trkpt lat="47.56501278" lon="8.37965751">
    <ele>349</ele>
    <time>2014-01-31T14:16:55Z</time>
    </trkpt>
    <trkpt lat="47.56545667" lon="8.37802917">
    <ele>347</ele>
    <time>2014-01-31T14:17:38Z</time>
    </trkpt>
    <trkpt lat="47.56558389" lon="8.37733917">
    <ele>345</ele>
    <time>2014-01-31T14:17:56Z</time>
    </trkpt>
    <trkpt lat="47.56562195" lon="8.37610556">
    <ele>346</ele>
    <time>2014-01-31T14:18:28Z</time>
    </trkpt>
    <trkpt lat="47.56548528" lon="8.37568556">
    <ele>348</ele>
    <time>2014-01-31T14:18:39Z</time>
    </trkpt>
    <trkpt lat="47.56545056" lon="8.37524056">
    <ele>349</ele>
    <time>2014-01-31T14:18:51Z</time>
    </trkpt>
    <trkpt lat="47.56554306" lon="8.37478251">
    <ele>350</ele>
    <time>2014-01-31T14:19:03Z</time>
    </trkpt>
    <trkpt lat="47.56614973" lon="8.37408362">
    <ele>344</ele>
    <time>2014-01-31T14:19:24Z</time>
    </trkpt>
    <trkpt lat="47.56655556" lon="8.37321778">
    <ele>344</ele>
    <time>2014-01-31T14:19:48Z</time>
    </trkpt>
    <trkpt lat="47.56655556" lon="8.37321778">
    <ele>344</ele>
    <time>2014-01-31T14:19:48Z</time>
    </trkpt>
    <trkpt lat="47.56708417" lon="8.36847056">
    <ele>348</ele>
    <time>2014-01-31T14:21:55Z</time>
    </trkpt>
    <trkpt lat="47.56773612" lon="8.36481084">
    <ele>353</ele>
    <time>2014-01-31T14:23:33Z</time>
    </trkpt>
    <trkpt lat="47.56763084" lon="8.36517639">
    <ele>353</ele>
    <time>2014-01-31T14:23:42Z</time>
    </trkpt>
    <trkpt lat="47.56787056" lon="8.36405584">
    <ele>354</ele>
    <time>2014-01-31T14:24:12Z</time>
    </trkpt>
    <trkpt lat="47.56754639" lon="8.36216639">
    <ele>354</ele>
    <time>2014-01-31T14:25:02Z</time>
    </trkpt>
    <trkpt lat="47.56745723" lon="8.36027389">
    <ele>353</ele>
    <time>2014-01-31T14:25:52Z</time>
    </trkpt>
    <trkpt lat="47.56702389" lon="8.35995528">
    <ele>354</ele>
    <time>2014-01-31T14:26:03Z</time>
    </trkpt>
    <trkpt lat="47.56701389" lon="8.36001001">
    <ele>355</ele>
    <time>2014-01-31T14:26:04Z</time>
    </trkpt>
    <trkpt lat="47.56662306" lon="8.35975251">
    <ele>362</ele>
    <time>2014-01-31T14:26:15Z</time>
    </trkpt>
    <trkpt lat="47.56672362" lon="8.35939">
    <ele>354</ele>
    <time>2014-01-31T14:26:24Z</time>
    </trkpt>
    <trkpt lat="47.56727251" lon="8.35714584">
    <ele>354</ele>
    <time>2014-01-31T14:27:24Z</time>
    </trkpt>
    <trkpt lat="47.5681575" lon="8.3528425">
    <ele>351</ele>
    <time>2014-01-31T14:29:19Z</time>
    </trkpt>
    <trkpt lat="47.56811778" lon="8.35218445">
    <ele>351</ele>
    <time>2014-01-31T14:29:36Z</time>
    </trkpt>
    <trkpt lat="47.56831834" lon="8.35166001">
    <ele>350</ele>
    <time>2014-01-31T14:29:50Z</time>
    </trkpt>
    <trkpt lat="47.56832612" lon="8.35097751">
    <ele>349</ele>
    <time>2014-01-31T14:30:08Z</time>
    </trkpt>
    <trkpt lat="47.56872278" lon="8.34932362">
    <ele>345</ele>
    <time>2014-01-31T14:30:52Z</time>
    </trkpt>
    <trkpt lat="47.56882195" lon="8.34827334">
    <ele>344</ele>
    <time>2014-01-31T14:31:19Z</time>
    </trkpt>
    <trkpt lat="47.56885556" lon="8.34695056">
    <ele>345</ele>
    <time>2014-01-31T14:31:54Z</time>
    </trkpt>
    <trkpt lat="47.56890195" lon="8.34620806">
    <ele>344</ele>
    <time>2014-01-31T14:32:13Z</time>
    </trkpt>
    <trkpt lat="47.56900223" lon="8.34487334">
    <ele>344</ele>
    <time>2014-01-31T14:32:48Z</time>
    </trkpt>
    <trkpt lat="47.56894806" lon="8.34362362">
    <ele>345</ele>
    <time>2014-01-31T14:33:21Z</time>
    </trkpt>
    <trkpt lat="47.56873862" lon="8.34372112">
    <ele>346</ele>
    <time>2014-01-31T14:33:25Z</time>
    </trkpt>
    <trkpt lat="47.56905473" lon="8.33850584">
    <ele>345</ele>
    <time>2014-01-31T14:35:43Z</time>
    </trkpt>
    <trkpt lat="47.56927056" lon="8.33501778">
    <ele>345</ele>
    <time>2014-01-31T14:37:15Z</time>
    </trkpt>
    <trkpt lat="47.56951639" lon="8.32966445">
    <ele>340</ele>
    <time>2014-01-31T14:39:36Z</time>
    </trkpt>
    <trkpt lat="47.56961889" lon="8.32657501">
    <ele>344</ele>
    <time>2014-01-31T14:40:58Z</time>
    </trkpt>
    <trkpt lat="47.56986556" lon="8.32522556">
    <ele>344</ele>
    <time>2014-01-31T14:41:34Z</time>
    </trkpt>
    <trkpt lat="47.57016028" lon="8.32419584">
    <ele>341</ele>
    <time>2014-01-31T14:42:01Z</time>
    </trkpt>
    <trkpt lat="47.57009917" lon="8.32360945">
    <ele>343</ele>
    <time>2014-01-31T14:42:17Z</time>
    </trkpt>
    <trkpt lat="47.56993862" lon="8.32273862">
    <ele>349</ele>
    <time>2014-01-31T14:42:41Z</time>
    </trkpt>
    <trkpt lat="47.56975139" lon="8.32197167">
    <ele>352</ele>
    <time>2014-01-31T14:43:02Z</time>
    </trkpt>
    <trkpt lat="47.57055584" lon="8.32150556">
    <ele>347</ele>
    <time>2014-01-31T14:43:20Z</time>
    </trkpt>
    <trkpt lat="47.57126001" lon="8.32058667">
    <ele>342</ele>
    <time>2014-01-31T14:43:47Z</time>
    </trkpt>
    <trkpt lat="47.57208445" lon="8.31697917">
    <ele>342</ele>
    <time>2014-01-31T14:45:23Z</time>
    </trkpt>
    <trkpt lat="47.57282056" lon="8.31468945">
    <ele>341</ele>
    <time>2014-01-31T14:46:25Z</time>
    </trkpt>
    <trkpt lat="47.57498806" lon="8.30950362">
    <ele>357</ele>
    <time>2014-01-31T14:48:51Z</time>
    </trkpt>
    <trkpt lat="47.57668695" lon="8.30639556">
    <ele>350</ele>
    <time>2014-01-31T14:50:18Z</time>
    </trkpt>
    <trkpt lat="47.57800084" lon="8.30501639">
    <ele>351</ele>
    <time>2014-01-31T14:51:01Z</time>
    </trkpt>
    <trkpt lat="47.57881834" lon="8.30441973">
    <ele>353</ele>
    <time>2014-01-31T14:51:23Z</time>
    </trkpt>
    <trkpt lat="47.58044612" lon="8.30395667">
    <ele>347</ele>
    <time>2014-01-31T14:51:54Z</time>
    </trkpt>
    <trkpt lat="47.58141362" lon="8.30353917">
    <ele>346</ele>
    <time>2014-01-31T14:52:14Z</time>
    </trkpt>
    <trkpt lat="47.58250056" lon="8.30247223">
    <ele>346</ele>
    <time>2014-01-31T14:52:48Z</time>
    </trkpt>
    <trkpt lat="47.58349889" lon="8.30144584">
    <ele>343</ele>
    <time>2014-01-31T14:53:20Z</time>
    </trkpt>
    <trkpt lat="47.5848075" lon="8.29949917">
    <ele>341</ele>
    <time>2014-01-31T14:54:16Z</time>
    </trkpt>
    <trkpt lat="47.58499556" lon="8.29907612">
    <ele>342</ele>
    <time>2014-01-31T14:54:27Z</time>
    </trkpt>
    <trkpt lat="47.58499556" lon="8.29907612">
    <ele>342</ele>
    <time>2014-01-31T14:54:27Z</time>
    </trkpt>
    <trkpt lat="47.58522334" lon="8.29857445">
    <ele>344</ele>
    <time>2014-01-31T14:54:41Z</time>
    </trkpt>
    <trkpt lat="47.58543639" lon="8.29809001">
    <ele>344</ele>
    <time>2014-01-31T14:54:54Z</time>
    </trkpt>
    <trkpt lat="47.58548278" lon="8.29801139">
    <ele>344</ele>
    <time>2014-01-31T14:54:56Z</time>
    </trkpt>
    <trkpt lat="47.58555195" lon="8.29782639">
    <ele>344</ele>
    <time>2014-01-31T14:55:01Z</time>
    </trkpt>
    <trkpt lat="47.5858875" lon="8.29698028">
    <ele>345</ele>
    <time>2014-01-31T14:55:24Z</time>
    </trkpt>
    <trkpt lat="47.5858875" lon="8.29698028">
    <ele>345</ele>
    <time>2014-01-31T14:55:24Z</time>
    </trkpt>
    <trkpt lat="47.58673584" lon="8.29511528">
    <ele>344</ele>
    <time>2014-01-31T14:56:15Z</time>
    </trkpt>
    <trkpt lat="47.58737917" lon="8.29408889">
    <ele>347</ele>
    <time>2014-01-31T14:56:45Z</time>
    </trkpt>
    <trkpt lat="47.58771778" lon="8.29330667">
    <ele>348</ele>
    <time>2014-01-31T14:57:06Z</time>
    </trkpt>
    <trkpt lat="47.5876825" lon="8.2931525">
    <ele>348</ele>
    <time>2014-01-31T14:57:10Z</time>
    </trkpt>
    <trkpt lat="47.587275" lon="8.29278945">
    <ele>348</ele>
    <time>2014-01-31T14:57:22Z</time>
    </trkpt>
    <trkpt lat="47.58696" lon="8.29229751">
    <ele>348</ele>
    <time>2014-01-31T14:57:36Z</time>
    </trkpt>
    <trkpt lat="47.58840556" lon="8.28972778">
    <ele>343</ele>
    <time>2014-01-31T14:58:48Z</time>
    </trkpt>
    <trkpt lat="47.58936889" lon="8.29102723">
    <ele>342</ele>
    <time>2014-01-31T14:59:26Z</time>
    </trkpt>
    <trkpt lat="47.59018389" lon="8.28968028">
    <ele>341</ele>
    <time>2014-01-31T15:00:04Z</time>
    </trkpt>
    <trkpt lat="47.59196584" lon="8.28682028">
    <ele>340</ele>
    <time>2014-01-31T15:01:26Z</time>
    </trkpt>
    <trkpt lat="47.59484945" lon="8.28199473">
    <ele>352</ele>
    <time>2014-01-31T15:03:46Z</time>
    </trkpt>
    <trkpt lat="47.59770639" lon="8.28123501">
    <ele>350</ele>
    <time>2014-01-31T15:04:40Z</time>
    </trkpt>
    <trkpt lat="47.59874778" lon="8.28032167">
    <ele>348</ele>
    <time>2014-01-31T15:05:10Z</time>
    </trkpt>
    <trkpt lat="47.59977278" lon="8.27871417">
    <ele>345</ele>
    <time>2014-01-31T15:05:56Z</time>
    </trkpt>
    <trkpt lat="47.59977278" lon="8.27871417">
    <ele>345</ele>
    <time>2014-01-31T15:05:56Z</time>
    </trkpt>
    <trkpt lat="47.60084667" lon="8.27647278">
    <ele>346</ele>
    <time>2014-01-31T15:06:58Z</time>
    </trkpt>
    <trkpt lat="47.60199306" lon="8.27433056">
    <ele>348</ele>
    <time>2014-01-31T15:07:58Z</time>
    </trkpt>
    <trkpt lat="47.60314223" lon="8.27258417">
    <ele>347</ele>
    <time>2014-01-31T15:08:48Z</time>
    </trkpt>
    <trkpt lat="47.60314167" lon="8.27294167">
    <ele>342</ele>
    <time>2014-01-31T15:08:57Z</time>
    </trkpt>
    <trkpt lat="47.60352167" lon="8.27263917">
    <ele>341</ele>
    <time>2014-01-31T15:09:07Z</time>
    </trkpt>
    <trkpt lat="47.60383056" lon="8.27207167">
    <ele>346</ele>
    <time>2014-01-31T15:09:24Z</time>
    </trkpt>
    <trkpt lat="47.60441945" lon="8.27101139">
    <ele>352</ele>
    <time>2014-01-31T15:09:55Z</time>
    </trkpt>
    <trkpt lat="47.60506834" lon="8.27058501">
    <ele>355</ele>
    <time>2014-01-31T15:10:11Z</time>
    </trkpt>
    <trkpt lat="47.60521612" lon="8.27111445">
    <ele>346</ele>
    <time>2014-01-31T15:10:25Z</time>
    </trkpt>
    <trkpt lat="47.60614334" lon="8.27059001">
    <ele>345</ele>
    <time>2014-01-31T15:10:46Z</time>
    </trkpt>
    <trkpt lat="47.60694889" lon="8.26966084">
    <ele>348</ele>
    <time>2014-01-31T15:11:15Z</time>
    </trkpt>
    <trkpt lat="47.60736639" lon="8.26879278">
    <ele>349</ele>
    <time>2014-01-31T15:11:39Z</time>
    </trkpt>
    <trkpt lat="47.60778167" lon="8.26686306">
    <ele>344</ele>
    <time>2014-01-31T15:12:30Z</time>
    </trkpt>
    <trkpt lat="47.60784278" lon="8.26458973">
    <ele>356</ele>
    <time>2014-01-31T15:13:33Z</time>
    </trkpt>
    <trkpt lat="47.60802834" lon="8.2636975">
    <ele>368</ele>
    <time>2014-01-31T15:13:59Z</time>
    </trkpt>
    <trkpt lat="47.60876334" lon="8.26231084">
    <ele>359</ele>
    <time>2014-01-31T15:14:38Z</time>
    </trkpt>
    <trkpt lat="47.61028445" lon="8.26056445">
    <ele>348</ele>
    <time>2014-01-31T15:15:31Z</time>
    </trkpt>
    <trkpt lat="47.61206639" lon="8.25862445">
    <ele>341</ele>
    <time>2014-01-31T15:16:31Z</time>
    </trkpt>
    <trkpt lat="47.61266778" lon="8.25801528">
    <ele>338</ele>
    <time>2014-01-31T15:16:50Z</time>
    </trkpt>
    <trkpt lat="47.61276001" lon="8.25767195">
    <ele>341</ele>
    <time>2014-01-31T15:16:59Z</time>
    </trkpt>
    <trkpt lat="47.61315473" lon="8.25688167">
    <ele>336</ele>
    <time>2014-01-31T15:17:21Z</time>
    </trkpt>
    <trkpt lat="47.61324945" lon="8.25606612">
    <ele>335</ele>
    <time>2014-01-31T15:17:42Z</time>
    </trkpt>
    <trkpt lat="47.613065" lon="8.25504945">
    <ele>336</ele>
    <time>2014-01-31T15:18:09Z</time>
    </trkpt>
    <trkpt lat="47.61249973" lon="8.25324584">
    <ele>340</ele>
    <time>2014-01-31T15:18:58Z</time>
    </trkpt>
    <trkpt lat="47.61246584" lon="8.25321556">
    <ele>340</ele>
    <time>2014-01-31T15:18:59Z</time>
    </trkpt>
    <trkpt lat="47.61144195" lon="8.24898862">
    <ele>343</ele>
    <time>2014-01-31T15:20:53Z</time>
    </trkpt>
    <trkpt lat="47.61122778" lon="8.24756001">
    <ele>340</ele>
    <time>2014-01-31T15:21:31Z</time>
    </trkpt>
    <trkpt lat="47.61118889" lon="8.24665139">
    <ele>341</ele>
    <time>2014-01-31T15:21:55Z</time>
    </trkpt>
    <trkpt lat="47.61102001" lon="8.24561639">
    <ele>341</ele>
    <time>2014-01-31T15:22:22Z</time>
    </trkpt>
    <trkpt lat="47.61071834" lon="8.24453251">
    <ele>339</ele>
    <time>2014-01-31T15:22:51Z</time>
    </trkpt>
    <trkpt lat="47.61030362" lon="8.24354334">
    <ele>335</ele>
    <time>2014-01-31T15:23:18Z</time>
    </trkpt>
    <trkpt lat="47.60969001" lon="8.24263417">
    <ele>336</ele>
    <time>2014-01-31T15:23:44Z</time>
    </trkpt>
    <trkpt lat="47.60932167" lon="8.24206028">
    <ele>336</ele>
    <time>2014-01-31T15:24:00Z</time>
    </trkpt>
    <trkpt lat="47.60927167" lon="8.24112862">
    <ele>329</ele>
    <time>2014-01-31T15:24:24Z</time>
    </trkpt>
    <trkpt lat="47.60937473" lon="8.24027862">
    <ele>326</ele>
    <time>2014-01-31T15:24:46Z</time>
    </trkpt>
    <trkpt lat="47.608785" lon="8.23909834">
    <ele>328</ele>
    <time>2014-01-31T15:25:19Z</time>
    </trkpt>
    <trkpt lat="47.608785" lon="8.23909834">
    <ele>328</ele>
    <time>2014-01-31T15:25:19Z</time>
    </trkpt>
    <trkpt lat="47.60899389" lon="8.23846834">
    <ele>323</ele>
    <time>2014-01-31T15:25:36Z</time>
    </trkpt>
    <trkpt lat="47.60900112" lon="8.23842251">
    <ele>323</ele>
    <time>2014-01-31T15:25:37Z</time>
    </trkpt>
    <trkpt lat="47.60917445" lon="8.23822112">
    <ele>321</ele>
    <time>2014-01-31T15:25:43Z</time>
    </trkpt>
    <trkpt lat="47.60947473" lon="8.23838223">
    <ele>319</ele>
    <time>2014-01-31T15:25:49Z</time>
    </trkpt>
    <trkpt lat="47.60955501" lon="8.23734139">
    <ele>318</ele>
    <time>2014-01-31T15:26:16Z</time>
    </trkpt>
    <trkpt lat="47.60924112" lon="8.23624001">
    <ele>320</ele>
    <time>2014-01-31T15:26:46Z</time>
    </trkpt>
    <trkpt lat="47.60922167" lon="8.23552473">
    <ele>323</ele>
    <time>2014-01-31T15:27:05Z</time>
    </trkpt>
    <trkpt lat="47.60911306" lon="8.23541889">
    <ele>323</ele>
    <time>2014-01-31T15:27:08Z</time>
    </trkpt>
    <trkpt lat="47.60861112" lon="8.23480112">
    <ele>322</ele>
    <time>2014-01-31T15:27:26Z</time>
    </trkpt>
    <trkpt lat="47.60861112" lon="8.23480112">
    <ele>322</ele>
    <time>2014-01-31T15:27:26Z</time>
    </trkpt>
    <trkpt lat="47.60726778" lon="8.23304973">
    <ele>323</ele>
    <time>2014-01-31T15:28:18Z</time>
    </trkpt>
    <trkpt lat="47.60613945" lon="8.23169195">
    <ele>321</ele>
    <time>2014-01-31T15:28:59Z</time>
    </trkpt>
    <trkpt lat="47.60441501" lon="8.22955445">
    <ele>328</ele>
    <time>2014-01-31T15:30:05Z</time>
    </trkpt>
    <trkpt lat="47.60428556" lon="8.22847945">
    <ele>328</ele>
    <time>2014-01-31T15:30:33Z</time>
    </trkpt>
    <trkpt lat="47.60390084" lon="8.22701889">
    <ele>320</ele>
    <time>2014-01-31T15:31:12Z</time>
    </trkpt>
    <trkpt lat="47.60379445" lon="8.22708945">
    <ele>320</ele>
    <time>2014-01-31T15:31:14Z</time>
    </trkpt>
    <trkpt lat="47.60390334" lon="8.22605862">
    <ele>319</ele>
    <time>2014-01-31T15:31:41Z</time>
    </trkpt>
    <trkpt lat="47.60420862" lon="8.22515501">
    <ele>317</ele>
    <time>2014-01-31T15:32:05Z</time>
    </trkpt>
    <trkpt lat="47.60498028" lon="8.22349973">
    <ele>318</ele>
    <time>2014-01-31T15:32:51Z</time>
    </trkpt>
    <trkpt lat="47.605745" lon="8.22221084">
    <ele>319</ele>
    <time>2014-01-31T15:33:28Z</time>
    </trkpt>
    <trkpt lat="47.60580584" lon="8.22214306">
    <ele>319</ele>
    <time>2014-01-31T15:33:30Z</time>
    </trkpt>
    <trkpt lat="47.60606445" lon="8.22173306">
    <ele>321</ele>
    <time>2014-01-31T15:33:42Z</time>
    </trkpt>
    <trkpt lat="47.60717556" lon="8.22136973">
    <ele>320</ele>
    <time>2014-01-31T15:34:04Z</time>
    </trkpt>
    <trkpt lat="47.60738945" lon="8.22119389">
    <ele>319</ele>
    <time>2014-01-31T15:34:10Z</time>
    </trkpt>
    <trkpt lat="47.60746362" lon="8.22126556">
    <ele>318</ele>
    <time>2014-01-31T15:34:12Z</time>
    </trkpt>
    <trkpt lat="47.60769139" lon="8.22139473">
    <ele>317</ele>
    <time>2014-01-31T15:34:17Z</time>
    </trkpt>
    <trkpt lat="47.60788917" lon="8.22130417">
    <ele>316</ele>
    <time>2014-01-31T15:34:21Z</time>
    </trkpt>
    <trkpt lat="47.608155" lon="8.22121445">
    <ele>316</ele>
    <time>2014-01-31T15:34:26Z</time>
    </trkpt>
    <trkpt lat="47.60805417" lon="8.22086195">
    <ele>317</ele>
    <time>2014-01-31T15:34:35Z</time>
    </trkpt>
    <trkpt lat="47.60800667" lon="8.22043001">
    <ele>320</ele>
    <time>2014-01-31T15:34:47Z</time>
    </trkpt>
    <trkpt lat="47.6086925" lon="8.21980223">
    <ele>320</ele>
    <time>2014-01-31T15:35:07Z</time>
    </trkpt>
    <trkpt lat="47.60968889" lon="8.21785223">
    <ele>319</ele>
    <time>2014-01-31T15:36:01Z</time>
    </trkpt>
    <trkpt lat="47.61102612" lon="8.21324445">
    <ele>324</ele>
    <time>2014-01-31T15:38:06Z</time>
    </trkpt>
    <trkpt lat="47.61237501" lon="8.21353639">
    <ele>313</ele>
    <time>2014-01-31T15:38:31Z</time>
    </trkpt>
    <trkpt lat="47.61326834" lon="8.21373389">
    <ele>313</ele>
    <time>2014-01-31T15:38:47Z</time>
    </trkpt>
    <trkpt lat="47.61349723" lon="8.21356556">
    <ele>312</ele>
    <time>2014-01-31T15:38:53Z</time>
    </trkpt>
    <trkpt lat="47.61508167" lon="8.21357139">
    <ele>313</ele>
    <time>2014-01-31T15:39:21Z</time>
    </trkpt>
    <trkpt lat="47.61546806" lon="8.21360139">
    <ele>312</ele>
    <time>2014-01-31T15:39:27Z</time>
    </trkpt>
    <trkpt lat="47.61620584" lon="8.21361695">
    <ele>312</ele>
    <time>2014-01-31T15:39:40Z</time>
    </trkpt>
    <trkpt lat="47.61641251" lon="8.21338417">
    <ele>312</ele>
    <time>2014-01-31T15:39:47Z</time>
    </trkpt>
    <trkpt lat="47.61705278" lon="8.21341473">
    <ele>313</ele>
    <time>2014-01-31T15:39:58Z</time>
    </trkpt>
    <trkpt lat="47.61715223" lon="8.21263945">
    <ele>311</ele>
    <time>2014-01-31T15:40:18Z</time>
    </trkpt>
    <trkpt lat="47.61747556" lon="8.21119084">
    <ele>310</ele>
    <time>2014-01-31T15:40:56Z</time>
    </trkpt>
    <trkpt lat="47.61780556" lon="8.21025862">
    <ele>313</ele>
    <time>2014-01-31T15:41:22Z</time>
    </trkpt>
    <trkpt lat="47.61925917" lon="8.21070501">
    <ele>313</ele>
    <time>2014-01-31T15:41:50Z</time>
    </trkpt>
    <trkpt lat="47.61969917" lon="8.21090223">
    <ele>315</ele>
    <time>2014-01-31T15:41:59Z</time>
    </trkpt>
    <trkpt lat="47.61992889" lon="8.20969417">
    <ele>317</ele>
    <time>2014-01-31T15:42:31Z</time>
    </trkpt>
    <trkpt lat="47.62001917" lon="8.20769139">
    <ele>318</ele>
    <time>2014-01-31T15:43:24Z</time>
    </trkpt>
    <trkpt lat="47.62000195" lon="8.20522834">
    <ele>318</ele>
    <time>2014-01-31T15:44:29Z</time>
    </trkpt>
    <trkpt lat="47.61974695" lon="8.20377167">
    <ele>318</ele>
    <time>2014-01-31T15:45:07Z</time>
    </trkpt>
    <trkpt lat="47.61895639" lon="8.2015625">
    <ele>316</ele>
    <time>2014-01-31T15:46:07Z</time>
    </trkpt>
    <trkpt lat="47.61860445" lon="8.20170973">
    <ele>312</ele>
    <time>2014-01-31T15:46:14Z</time>
    </trkpt>
    <trkpt lat="47.61817751" lon="8.20138723">
    <ele>312</ele>
    <time>2014-01-31T15:46:25Z</time>
    </trkpt>
    <trkpt lat="47.61796" lon="8.20119889">
    <ele>312</ele>
    <time>2014-01-31T15:46:31Z</time>
    </trkpt>
    <trkpt lat="47.61742917" lon="8.20117028">
    <ele>313</ele>
    <time>2014-01-31T15:46:40Z</time>
    </trkpt>
    <trkpt lat="47.61683612" lon="8.20074973">
    <ele>313</ele>
    <time>2014-01-31T15:46:55Z</time>
    </trkpt>
    <trkpt lat="47.61656723" lon="8.20032751">
    <ele>313</ele>
    <time>2014-01-31T15:47:07Z</time>
    </trkpt>
    <trkpt lat="47.61656723" lon="8.20032751">
    <ele>313</ele>
    <time>2014-01-31T15:47:07Z</time>
    </trkpt>
    <trkpt lat="47.61670223" lon="8.20006167">
    <ele>312</ele>
    <time>2014-01-31T15:47:14Z</time>
    </trkpt>
    <trkpt lat="47.61669556" lon="8.19952306">
    <ele>312</ele>
    <time>2014-01-31T15:47:28Z</time>
    </trkpt>
    <trkpt lat="47.61637167" lon="8.19875584">
    <ele>313</ele>
    <time>2014-01-31T15:47:49Z</time>
    </trkpt>
    <trkpt lat="47.61573445" lon="8.19775">
    <ele>314</ele>
    <time>2014-01-31T15:48:18Z</time>
    </trkpt>
    <trkpt lat="47.61512639" lon="8.19682084">
    <ele>314</ele>
    <time>2014-01-31T15:48:44Z</time>
    </trkpt>
    <trkpt lat="47.61421834" lon="8.19506862">
    <ele>316</ele>
    <time>2014-01-31T15:49:33Z</time>
    </trkpt>
    <trkpt lat="47.61420612" lon="8.19505778">
    <ele>316</ele>
    <time>2014-01-31T15:49:33Z</time>
    </trkpt>
    <trkpt lat="47.61385167" lon="8.19448112">
    <ele>317</ele>
    <time>2014-01-31T15:49:59Z</time>
    </trkpt>
    <trkpt lat="47.61261695" lon="8.19321028">
    <ele>319</ele>
    <time>2014-01-31T15:51:02Z</time>
    </trkpt>
    <trkpt lat="47.611005" lon="8.19162695">
    <ele>324</ele>
    <time>2014-01-31T15:52:23Z</time>
    </trkpt>
    <trkpt lat="47.60837056" lon="8.19027473">
    <ele>322</ele>
    <time>2014-01-31T15:53:55Z</time>
    </trkpt>
    <trkpt lat="47.60654112" lon="8.18874112">
    <ele>326</ele>
    <time>2014-01-31T15:55:17Z</time>
    </trkpt>
    <trkpt lat="47.60599973" lon="8.18848417">
    <ele>324</ele>
    <time>2014-01-31T15:55:35Z</time>
    </trkpt>
    <trkpt lat="47.60452806" lon="8.18670334">
    <ele>326</ele>
    <time>2014-01-31T15:56:59Z</time>
    </trkpt>
    <trkpt lat="47.60398528" lon="8.18566973">
    <ele>328</ele>
    <time>2014-01-31T15:57:44Z</time>
    </trkpt>
    <trkpt lat="47.60381917" lon="8.18558139">
    <ele>327</ele>
    <time>2014-01-31T15:57:49Z</time>
    </trkpt>
    <trkpt lat="47.60363139" lon="8.18551584">
    <ele>327</ele>
    <time>2014-01-31T15:57:54Z</time>
    </trkpt>
    <trkpt lat="47.6027225" lon="8.18247723">
    <ele>326</ele>
    <time>2014-01-31T16:00:01Z</time>
    </trkpt>
    <trkpt lat="47.60150806" lon="8.17816751">
    <ele>323</ele>
    <time>2014-01-31T16:03:01Z</time>
    </trkpt>
    <trkpt lat="47.60032723" lon="8.17543973">
    <ele>317</ele>
    <time>2014-01-31T16:04:58Z</time>
    </trkpt>
    <trkpt lat="47.59919417" lon="8.17407778">
    <ele>314</ele>
    <time>2014-01-31T16:06:02Z</time>
    </trkpt>
    <trkpt lat="47.59885834" lon="8.17379501">
    <ele>314</ele>
    <time>2014-01-31T16:06:16Z</time>
    </trkpt>
    <trkpt lat="47.59880112" lon="8.17369278">
    <ele>314</ele>
    <time>2014-01-31T16:06:18Z</time>
    </trkpt>
    <trkpt lat="47.59868528" lon="8.17365973">
    <ele>313</ele>
    <time>2014-01-31T16:06:20Z</time>
    </trkpt>
    <trkpt lat="47.59861834" lon="8.17366917">
    <ele>313</ele>
    <time>2014-01-31T16:06:21Z</time>
    </trkpt>
    <trkpt lat="47.59807362" lon="8.17375973">
    <ele>313</ele>
    <time>2014-01-31T16:06:31Z</time>
    </trkpt>
    <trkpt lat="47.59783667" lon="8.17378001">
    <ele>313</ele>
    <time>2014-01-31T16:06:35Z</time>
    </trkpt>
    <trkpt lat="47.59749917" lon="8.17333167">
    <ele>313</ele>
    <time>2014-01-31T16:06:48Z</time>
    </trkpt>
    <trkpt lat="47.59739612" lon="8.17280056">
    <ele>312</ele>
    <time>2014-01-31T16:07:02Z</time>
    </trkpt>
    <trkpt lat="47.59727112" lon="8.17225417">
    <ele>308</ele>
    <time>2014-01-31T16:07:16Z</time>
    </trkpt>
    <trkpt lat="47.59657112" lon="8.17136945">
    <ele>310</ele>
    <time>2014-01-31T16:07:43Z</time>
    </trkpt>
    <trkpt lat="47.59601973" lon="8.17078334">
    <ele>315</ele>
    <time>2014-01-31T16:08:02Z</time>
    </trkpt>
    <trkpt lat="47.59574973" lon="8.17052473">
    <ele>315</ele>
    <time>2014-01-31T16:08:10Z</time>
    </trkpt>
    <trkpt lat="47.59533" lon="8.16991528">
    <ele>316</ele>
    <time>2014-01-31T16:08:28Z</time>
    </trkpt>
    <trkpt lat="47.59486362" lon="8.1691775">
    <ele>317</ele>
    <time>2014-01-31T16:08:49Z</time>
    </trkpt>
    <trkpt lat="47.59456112" lon="8.16849612">
    <ele>317</ele>
    <time>2014-01-31T16:09:07Z</time>
    </trkpt>
    <trkpt lat="47.5941475" lon="8.16750667">
    <ele>319</ele>
    <time>2014-01-31T16:09:34Z</time>
    </trkpt>
    <trkpt lat="47.59366834" lon="8.16605362">
    <ele>320</ele>
    <time>2014-01-31T16:10:13Z</time>
    </trkpt>
    <trkpt lat="47.59329139" lon="8.16484778">
    <ele>319</ele>
    <time>2014-01-31T16:10:45Z</time>
    </trkpt>
    <trkpt lat="47.59304695" lon="8.16370945">
    <ele>318</ele>
    <time>2014-01-31T16:11:15Z</time>
    </trkpt>
    <trkpt lat="47.59292" lon="8.16271139">
    <ele>317</ele>
    <time>2014-01-31T16:11:41Z</time>
    </trkpt>
    <trkpt lat="47.59289167" lon="8.16201584">
    <ele>315</ele>
    <time>2014-01-31T16:11:59Z</time>
    </trkpt>
    <trkpt lat="47.59239556" lon="8.16045834">
    <ele>312</ele>
    <time>2014-01-31T16:12:41Z</time>
    </trkpt>
    <trkpt lat="47.59243223" lon="8.16038917">
    <ele>312</ele>
    <time>2014-01-31T16:12:44Z</time>
    </trkpt>
    <trkpt lat="47.59274362" lon="8.16007362">
    <ele>312</ele>
    <time>2014-01-31T16:12:59Z</time>
    </trkpt>
    <trkpt lat="47.59308389" lon="8.15849389">
    <ele>310</ele>
    <time>2014-01-31T16:14:04Z</time>
    </trkpt>
    <trkpt lat="47.59322695" lon="8.15779056">
    <ele>309</ele>
    <time>2014-01-31T16:14:33Z</time>
    </trkpt>
    <trkpt lat="47.59354028" lon="8.15661973">
    <ele>308</ele>
    <time>2014-01-31T16:15:22Z</time>
    </trkpt>
    <trkpt lat="47.59378223" lon="8.1557275">
    <ele>309</ele>
    <time>2014-01-31T16:15:59Z</time>
    </trkpt>
    <trkpt lat="47.59371917" lon="8.15423167">
    <ele>309</ele>
    <time>2014-01-31T16:17:00Z</time>
    </trkpt>
    <trkpt lat="47.59370223" lon="8.15192389">
    <ele>312</ele>
    <time>2014-01-31T16:18:36Z</time>
    </trkpt>
    <trkpt lat="47.59388862" lon="8.14899723">
    <ele>315</ele>
    <time>2014-01-31T16:20:37Z</time>
    </trkpt>
    <trkpt lat="47.59392362" lon="8.14837084">
    <ele>316</ele>
    <time>2014-01-31T16:21:03Z</time>
    </trkpt>
    <trkpt lat="47.592935" lon="8.14575">
    <ele>316</ele>
    <time>2014-01-31T16:22:54Z</time>
    </trkpt>
    <trkpt lat="47.59275917" lon="8.14564501">
    <ele>314</ele>
    <time>2014-01-31T16:23:00Z</time>
    </trkpt>
    <trkpt lat="47.59219945" lon="8.14426834">
    <ele>316</ele>
    <time>2014-01-31T16:23:59Z</time>
    </trkpt>
    <trkpt lat="47.59219945" lon="8.14416251">
    <ele>317</ele>
    <time>2014-01-31T16:24:03Z</time>
    </trkpt>
    <trkpt lat="47.59170862" lon="8.14280084">
    <ele>320</ele>
    <time>2014-01-31T16:25:01Z</time>
    </trkpt>
    <trkpt lat="47.59040667" lon="8.14028167">
    <ele>317</ele>
    <time>2014-01-31T16:26:50Z</time>
    </trkpt>
    <trkpt lat="47.59002056" lon="8.13975084">
    <ele>317</ele>
    <time>2014-01-31T16:27:14Z</time>
    </trkpt>
    <trkpt lat="47.58960667" lon="8.13931751">
    <ele>314</ele>
    <time>2014-01-31T16:27:35Z</time>
    </trkpt>
    <trkpt lat="47.58918473" lon="8.13905723">
    <ele>316</ele>
    <time>2014-01-31T16:27:51Z</time>
    </trkpt>
    <trkpt lat="47.58903139" lon="8.13926112">
    <ele>316</ele>
    <time>2014-01-31T16:28:00Z</time>
    </trkpt>
    <trkpt lat="47.58893417" lon="8.13913278">
    <ele>317</ele>
    <time>2014-01-31T16:28:04Z</time>
    </trkpt>
    <trkpt lat="47.58864278" lon="8.13886334">
    <ele>318</ele>
    <time>2014-01-31T16:28:13Z</time>
    </trkpt>
    <trkpt lat="47.58785389" lon="8.13888084">
    <ele>312</ele>
    <time>2014-01-31T16:28:27Z</time>
    </trkpt>
    <trkpt lat="47.58590834" lon="8.13949889">
    <ele>307</ele>
    <time>2014-01-31T16:29:05Z</time>
    </trkpt>
    <trkpt lat="47.58544778" lon="8.13958834">
    <ele>308</ele>
    <time>2014-01-31T16:29:13Z</time>
    </trkpt>
    <trkpt lat="47.5849075" lon="8.13903167">
    <ele>311</ele>
    <time>2014-01-31T16:29:31Z</time>
    </trkpt>
    <trkpt lat="47.58470973" lon="8.13895473">
    <ele>312</ele>
    <time>2014-01-31T16:29:35Z</time>
    </trkpt>
    <trkpt lat="47.58449084" lon="8.13909473">
    <ele>312</ele>
    <time>2014-01-31T16:29:40Z</time>
    </trkpt>
    <trkpt lat="47.584345" lon="8.13930723">
    <ele>312</ele>
    <time>2014-01-31T16:29:46Z</time>
    </trkpt>
    <trkpt lat="47.58404112" lon="8.13964278">
    <ele>315</ele>
    <time>2014-01-31T16:29:57Z</time>
    </trkpt>
    <trkpt lat="47.58275278" lon="8.13597306">
    <ele>329</ele>
    <time>2014-01-31T16:31:40Z</time>
    </trkpt>
    <trkpt lat="47.58238723" lon="8.13297084">
    <ele>348</ele>
    <time>2014-01-31T16:33:04Z</time>
    </trkpt>
    <trkpt lat="47.58250445" lon="8.12981862">
    <ele>323</ele>
    <time>2014-01-31T16:34:27Z</time>
    </trkpt>
    <trkpt lat="47.58223667" lon="8.12858112">
    <ele>323</ele>
    <time>2014-01-31T16:35:00Z</time>
    </trkpt>
    <trkpt lat="47.58166445" lon="8.12692778">
    <ele>341</ele>
    <time>2014-01-31T16:35:49Z</time>
    </trkpt>
    <trkpt lat="47.58164334" lon="8.12505278">
    <ele>344</ele>
    <time>2014-01-31T16:36:39Z</time>
    </trkpt>
    <trkpt lat="47.58197084" lon="8.12142167">
    <ele>330</ele>
    <time>2014-01-31T16:38:15Z</time>
    </trkpt>
    <trkpt lat="47.58206862" lon="8.11778056">
    <ele>324</ele>
    <time>2014-01-31T16:39:51Z</time>
    </trkpt>
    <trkpt lat="47.58199723" lon="8.11701306">
    <ele>323</ele>
    <time>2014-01-31T16:40:11Z</time>
    </trkpt>
    <trkpt lat="47.58144139" lon="8.11340889">
    <ele>321</ele>
    <time>2014-01-31T16:41:47Z</time>
    </trkpt>
    <trkpt lat="47.58097917" lon="8.111925">
    <ele>321</ele>
    <time>2014-01-31T16:42:27Z</time>
    </trkpt>
    <trkpt lat="47.57918362" lon="8.10814334">
    <ele>320</ele>
    <time>2014-01-31T16:44:12Z</time>
    </trkpt>
    <trkpt lat="47.57840556" lon="8.10665167">
    <ele>323</ele>
    <time>2014-01-31T16:44:54Z</time>
    </trkpt>
    <trkpt lat="47.57768251" lon="8.10585834">
    <ele>321</ele>
    <time>2014-01-31T16:45:18Z</time>
    </trkpt>
    <trkpt lat="47.57580389" lon="8.10464473">
    <ele>324</ele>
    <time>2014-01-31T16:46:05Z</time>
    </trkpt>
    <trkpt lat="47.57429584" lon="8.10426723">
    <ele>318</ele>
    <time>2014-01-31T16:46:33Z</time>
    </trkpt>
    <trkpt lat="47.57252389" lon="8.10450639">
    <ele>310</ele>
    <time>2014-01-31T16:47:05Z</time>
    </trkpt>
    <trkpt lat="47.57150278" lon="8.10435139">
    <ele>315</ele>
    <time>2014-01-31T16:47:24Z</time>
    </trkpt>
    <trkpt lat="47.57140417" lon="8.10422445">
    <ele>316</ele>
    <time>2014-01-31T16:47:28Z</time>
    </trkpt>
    <trkpt lat="47.57133445" lon="8.10411889">
    <ele>317</ele>
    <time>2014-01-31T16:47:31Z</time>
    </trkpt>
    <trkpt lat="47.57108723" lon="8.10410278">
    <ele>321</ele>
    <time>2014-01-31T16:47:36Z</time>
    </trkpt>
    <trkpt lat="47.57090056" lon="8.10395889">
    <ele>322</ele>
    <time>2014-01-31T16:47:41Z</time>
    </trkpt>
    <trkpt lat="47.57076639" lon="8.10392556">
    <ele>323</ele>
    <time>2014-01-31T16:47:43Z</time>
    </trkpt>
    <trkpt lat="47.57046695" lon="8.10384945">
    <ele>321</ele>
    <time>2014-01-31T16:47:48Z</time>
    </trkpt>
    <trkpt lat="47.57019195" lon="8.10384778">
    <ele>323</ele>
    <time>2014-01-31T16:47:53Z</time>
    </trkpt>
    <trkpt lat="47.56777556" lon="8.10337445">
    <ele>329</ele>
    <time>2014-01-31T16:48:39Z</time>
    </trkpt>
    <trkpt lat="47.5648925" lon="8.10234723">
    <ele>335</ele>
    <time>2014-01-31T16:49:38Z</time>
    </trkpt>
    <trkpt lat="47.56155362" lon="8.10008417">
    <ele>337</ele>
    <time>2014-01-31T16:51:03Z</time>
    </trkpt>
    <trkpt lat="47.56029223" lon="8.09839028">
    <ele>335</ele>
    <time>2014-01-31T16:51:53Z</time>
    </trkpt>
    <trkpt lat="47.55795" lon="8.09349028">
    <ele>318</ele>
    <time>2014-01-31T16:54:09Z</time>
    </trkpt>
    <trkpt lat="47.55793445" lon="8.09347834">
    <ele>318</ele>
    <time>2014-01-31T16:54:09Z</time>
    </trkpt>
    <trkpt lat="47.55643639" lon="8.09077889">
    <ele>311</ele>
    <time>2014-01-31T16:55:25Z</time>
    </trkpt>
    <trkpt lat="47.55611306" lon="8.08994223">
    <ele>308</ele>
    <time>2014-01-31T16:55:47Z</time>
    </trkpt>
    <trkpt lat="47.55580334" lon="8.08817">
    <ele>308</ele>
    <time>2014-01-31T16:56:34Z</time>
    </trkpt>
    <trkpt lat="47.55570723" lon="8.08701167">
    <ele>307</ele>
    <time>2014-01-31T16:57:04Z</time>
    </trkpt>
    <trkpt lat="47.55573362" lon="8.08534612">
    <ele>307</ele>
    <time>2014-01-31T16:57:48Z</time>
    </trkpt>
    <trkpt lat="47.55574806" lon="8.08529334">
    <ele>307</ele>
    <time>2014-01-31T16:57:49Z</time>
    </trkpt>
    <trkpt lat="47.55594195" lon="8.08388612">
    <ele>307</ele>
    <time>2014-01-31T16:58:26Z</time>
    </trkpt>
    <trkpt lat="47.55653834" lon="8.08134084">
    <ele>327</ele>
    <time>2014-01-31T16:59:39Z</time>
    </trkpt>
    <trkpt lat="47.55762167" lon="8.07842889">
    <ele>341</ele>
    <time>2014-01-31T17:01:01Z</time>
    </trkpt>
    <trkpt lat="47.55906723" lon="8.07596612">
    <ele>324</ele>
    <time>2014-01-31T17:02:11Z</time>
    </trkpt>
    <trkpt lat="47.55969001" lon="8.07474139">
    <ele>322</ele>
    <time>2014-01-31T17:02:45Z</time>
    </trkpt>
    <trkpt lat="47.55999556" lon="8.07357973">
    <ele>323</ele>
    <time>2014-01-31T17:03:16Z</time>
    </trkpt>
    <trkpt lat="47.56099389" lon="8.06919112">
    <ele>316</ele>
    <time>2014-01-31T17:05:13Z</time>
    </trkpt>
    <trkpt lat="47.56100084" lon="8.06917917">
    <ele>316</ele>
    <time>2014-01-31T17:05:13Z</time>
    </trkpt>
    <trkpt lat="47.56130056" lon="8.06763612">
    <ele>317</ele>
    <time>2014-01-31T17:05:54Z</time>
    </trkpt>
    <trkpt lat="47.56119084" lon="8.06576056">
    <ele>320</ele>
    <time>2014-01-31T17:06:44Z</time>
    </trkpt>
    <trkpt lat="47.56086778" lon="8.0644075">
    <ele>318</ele>
    <time>2014-01-31T17:07:20Z</time>
    </trkpt>
    <trkpt lat="47.55995584" lon="8.06227778">
    <ele>323</ele>
    <time>2014-01-31T17:08:19Z</time>
    </trkpt>
    <trkpt lat="47.55788278" lon="8.05838278">
    <ele>319</ele>
    <time>2014-01-31T17:10:08Z</time>
    </trkpt>
    <trkpt lat="47.55807862" lon="8.0583975">
    <ele>318</ele>
    <time>2014-01-31T17:10:11Z</time>
    </trkpt>
    <trkpt lat="47.55752167" lon="8.05856528">
    <ele>321</ele>
    <time>2014-01-31T17:10:22Z</time>
    </trkpt>
    <trkpt lat="47.55675917" lon="8.05857917">
    <ele>325</ele>
    <time>2014-01-31T17:10:36Z</time>
    </trkpt>
    <trkpt lat="47.55578473" lon="8.05791723">
    <ele>328</ele>
    <time>2014-01-31T17:11:01Z</time>
    </trkpt>
    <trkpt lat="47.55410612" lon="8.05642778">
    <ele>327</ele>
    <time>2014-01-31T17:11:50Z</time>
    </trkpt>
    <trkpt lat="47.55209723" lon="8.05449695">
    <ele>322</ele>
    <time>2014-01-31T17:12:52Z</time>
    </trkpt>
    <trkpt lat="47.55142084" lon="8.05355195">
    <ele>327</ele>
    <time>2014-01-31T17:13:21Z</time>
    </trkpt>
    <trkpt lat="47.5507225" lon="8.0529525">
    <ele>324</ele>
    <time>2014-01-31T17:13:41Z</time>
    </trkpt>
    <trkpt lat="47.54915278" lon="8.05201806">
    <ele>324</ele>
    <time>2014-01-31T17:14:18Z</time>
    </trkpt>
    <trkpt lat="47.54819612" lon="8.05158362">
    <ele>322</ele>
    <time>2014-01-31T17:14:38Z</time>
    </trkpt>
    <trkpt lat="47.54710195" lon="8.05138584">
    <ele>326</ele>
    <time>2014-01-31T17:14:59Z</time>
    </trkpt>
    <trkpt lat="47.54639251" lon="8.05137389">
    <ele>325</ele>
    <time>2014-01-31T17:15:11Z</time>
    </trkpt>
    <trkpt lat="47.54563251" lon="8.05145028">
    <ele>324</ele>
    <time>2014-01-31T17:15:24Z</time>
    </trkpt>
    <trkpt lat="47.54397806" lon="8.0504775">
    <ele>336</ele>
    <time>2014-01-31T17:16:06Z</time>
    </trkpt>
    <trkpt lat="47.54363362" lon="8.05014723">
    <ele>339</ele>
    <time>2014-01-31T17:16:17Z</time>
    </trkpt>
    <trkpt lat="47.5435825" lon="8.05001445">
    <ele>342</ele>
    <time>2014-01-31T17:16:21Z</time>
    </trkpt>
    <trkpt lat="47.54255862" lon="8.04790695">
    <ele>339</ele>
    <time>2014-01-31T17:17:19Z</time>
    </trkpt>
    <trkpt lat="47.54142612" lon="8.04528917">
    <ele>339</ele>
    <time>2014-01-31T17:18:31Z</time>
    </trkpt>
    <trkpt lat="47.54116334" lon="8.04471139">
    <ele>333</ele>
    <time>2014-01-31T17:18:47Z</time>
    </trkpt>
    <trkpt lat="47.54088639" lon="8.04440834">
    <ele>334</ele>
    <time>2014-01-31T17:18:56Z</time>
    </trkpt>
    <trkpt lat="47.54073889" lon="8.0443875">
    <ele>334</ele>
    <time>2014-01-31T17:18:58Z</time>
    </trkpt>
    <trkpt lat="47.54038306" lon="8.04437945">
    <ele>334</ele>
    <time>2014-01-31T17:19:04Z</time>
    </trkpt>
    <trkpt lat="47.54035417" lon="8.04402639">
    <ele>333</ele>
    <time>2014-01-31T17:19:13Z</time>
    </trkpt>
    <trkpt lat="47.54042167" lon="8.04350917">
    <ele>332</ele>
    <time>2014-01-31T17:19:26Z</time>
    </trkpt>
    <trkpt lat="47.5399975" lon="8.04195862">
    <ele>342</ele>
    <time>2014-01-31T17:20:10Z</time>
    </trkpt>
    <trkpt lat="47.54021195" lon="8.04110889">
    <ele>345</ele>
    <time>2014-01-31T17:20:33Z</time>
    </trkpt>
    <trkpt lat="47.54099584" lon="8.03934889">
    <ele>326</ele>
    <time>2014-01-31T17:21:21Z</time>
    </trkpt>
    <trkpt lat="47.54097889" lon="8.03776056">
    <ele>327</ele>
    <time>2014-01-31T17:22:03Z</time>
    </trkpt>
    <trkpt lat="47.54026834" lon="8.02927139">
    <ele>320</ele>
    <time>2014-01-31T17:25:48Z</time>
    </trkpt>
    <trkpt lat="47.54038084" lon="8.02640862">
    <ele>320</ele>
    <time>2014-01-31T17:27:03Z</time>
    </trkpt>
    <trkpt lat="47.54058639" lon="8.02380834">
    <ele>335</ele>
    <time>2014-01-31T17:28:15Z</time>
    </trkpt>
    <trkpt lat="47.54015112" lon="8.02084">
    <ele>333</ele>
    <time>2014-01-31T17:29:34Z</time>
    </trkpt>
    <trkpt lat="47.53993806" lon="8.01491306">
    <ele>342</ele>
    <time>2014-01-31T17:32:13Z</time>
    </trkpt>
    <trkpt lat="47.53993778" lon="8.01490917">
    <ele>342</ele>
    <time>2014-01-31T17:32:13Z</time>
    </trkpt>
    <trkpt lat="47.53969862" lon="8.01129695">
    <ele>334</ele>
    <time>2014-01-31T17:33:48Z</time>
    </trkpt>
    <trkpt lat="47.53948917" lon="8.00515195">
    <ele>332</ele>
    <time>2014-01-31T17:36:30Z</time>
    </trkpt>
    <trkpt lat="47.53935112" lon="8.00123473">
    <ele>330</ele>
    <time>2014-01-31T17:38:13Z</time>
    </trkpt>
    <trkpt lat="47.53985417" lon="7.99589806">
    <ele>317</ele>
    <time>2014-01-31T17:40:34Z</time>
    </trkpt>
    <trkpt lat="47.54036973" lon="7.99375139">
    <ele>317</ele>
    <time>2014-01-31T17:41:31Z</time>
    </trkpt>
    <trkpt lat="47.5403775" lon="7.99369806">
    <ele>317</ele>
    <time>2014-01-31T17:41:32Z</time>
    </trkpt>
    <trkpt lat="47.54027112" lon="7.99255">
    <ele>315</ele>
    <time>2014-01-31T17:42:02Z</time>
    </trkpt>
    <trkpt lat="47.54009889" lon="7.99153612">
    <ele>313</ele>
    <time>2014-01-31T17:42:29Z</time>
    </trkpt>
    <trkpt lat="47.54001778" lon="7.98823278">
    <ele>321</ele>
    <time>2014-01-31T17:43:58Z</time>
    </trkpt>
    <trkpt lat="47.54036362" lon="7.98724834">
    <ele>321</ele>
    <time>2014-01-31T17:44:24Z</time>
    </trkpt>
    <trkpt lat="47.54040806" lon="7.98695417">
    <ele>323</ele>
    <time>2014-01-31T17:44:32Z</time>
    </trkpt>
    <trkpt lat="47.54036028" lon="7.98671306">
    <ele>322</ele>
    <time>2014-01-31T17:44:38Z</time>
    </trkpt>
    <trkpt lat="47.53982417" lon="7.98658889">
    <ele>320</ele>
    <time>2014-01-31T17:44:48Z</time>
    </trkpt>
    <trkpt lat="47.53895528" lon="7.98646862">
    <ele>319</ele>
    <time>2014-01-31T17:45:03Z</time>
    </trkpt>
    <trkpt lat="47.53792" lon="7.98640445">
    <ele>319</ele>
    <time>2014-01-31T17:45:21Z</time>
    </trkpt>
    <trkpt lat="47.53784639" lon="7.98601723">
    <ele>321</ele>
    <time>2014-01-31T17:45:31Z</time>
    </trkpt>
    <trkpt lat="47.53785389" lon="7.98587251">
    <ele>321</ele>
    <time>2014-01-31T17:45:34Z</time>
    </trkpt>
    <trkpt lat="47.53822306" lon="7.98549167">
    <ele>322</ele>
    <time>2014-01-31T17:45:46Z</time>
    </trkpt>
    <trkpt lat="47.53641584" lon="7.98336639">
    <ele>326</ele>
    <time>2014-01-31T17:46:51Z</time>
    </trkpt>
    <trkpt lat="47.53711362" lon="7.98133056">
    <ele>335</ele>
    <time>2014-01-31T17:47:48Z</time>
    </trkpt>
    <trkpt lat="47.53712389" lon="7.98128084">
    <ele>335</ele>
    <time>2014-01-31T17:47:49Z</time>
    </trkpt>
    <trkpt lat="47.53790001" lon="7.97848639">
    <ele>335</ele>
    <time>2014-01-31T17:49:04Z</time>
    </trkpt>
    <trkpt lat="47.53871139" lon="7.97455862">
    <ele>331</ele>
    <time>2014-01-31T17:50:49Z</time>
    </trkpt>
    <trkpt lat="47.53983473" lon="7.96976723">
    <ele>322</ele>
    <time>2014-01-31T17:52:57Z</time>
    </trkpt>
    <trkpt lat="47.54069528" lon="7.9657975">
    <ele>319</ele>
    <time>2014-01-31T17:54:43Z</time>
    </trkpt>
    <trkpt lat="47.54110389" lon="7.96414306">
    <ele>318</ele>
    <time>2014-01-31T17:55:27Z</time>
    </trkpt>
    <trkpt lat="47.54118334" lon="7.96406862">
    <ele>317</ele>
    <time>2014-01-31T17:55:29Z</time>
    </trkpt>
    <trkpt lat="47.54105806" lon="7.96360389">
    <ele>319</ele>
    <time>2014-01-31T17:55:41Z</time>
    </trkpt>
    <trkpt lat="47.54108028" lon="7.96347112">
    <ele>319</ele>
    <time>2014-01-31T17:55:44Z</time>
    </trkpt>
    <trkpt lat="47.54125028" lon="7.96291584">
    <ele>317</ele>
    <time>2014-01-31T17:55:59Z</time>
    </trkpt>
    <trkpt lat="47.54130167" lon="7.962115">
    <ele>315</ele>
    <time>2014-01-31T17:56:20Z</time>
    </trkpt>
    <trkpt lat="47.54126001" lon="7.96153862">
    <ele>315</ele>
    <time>2014-01-31T17:56:35Z</time>
    </trkpt>
    <trkpt lat="47.54107195" lon="7.96061917">
    <ele>314</ele>
    <time>2014-01-31T17:56:59Z</time>
    </trkpt>
    <trkpt lat="47.54093278" lon="7.95991">
    <ele>311</ele>
    <time>2014-01-31T17:57:17Z</time>
    </trkpt>
    <trkpt lat="47.54085028" lon="7.95961917">
    <ele>311</ele>
    <time>2014-01-31T17:57:24Z</time>
    </trkpt>
    <trkpt lat="47.54130139" lon="7.95799112">
    <ele>306</ele>
    <time>2014-01-31T17:58:07Z</time>
    </trkpt>
    <trkpt lat="47.54137528" lon="7.95768778">
    <ele>306</ele>
    <time>2014-01-31T17:58:15Z</time>
    </trkpt>
    <trkpt lat="47.54158917" lon="7.95453667">
    <ele>301</ele>
    <time>2014-01-31T17:59:38Z</time>
    </trkpt>
    <trkpt lat="47.54211695" lon="7.95202056">
    <ele>299</ele>
    <time>2014-01-31T18:00:45Z</time>
    </trkpt>
    <trkpt lat="47.54275417" lon="7.94913223">
    <ele>303</ele>
    <time>2014-01-31T18:02:03Z</time>
    </trkpt>
    <trkpt lat="47.54301167" lon="7.94753973">
    <ele>302</ele>
    <time>2014-01-31T18:02:45Z</time>
    </trkpt>
    <trkpt lat="47.54314973" lon="7.94723778">
    <ele>300</ele>
    <time>2014-01-31T18:02:53Z</time>
    </trkpt>
    <trkpt lat="47.54297389" lon="7.94640917">
    <ele>301</ele>
    <time>2014-01-31T18:03:15Z</time>
    </trkpt>
    <trkpt lat="47.54297556" lon="7.94526695">
    <ele>301</ele>
    <time>2014-01-31T18:03:45Z</time>
    </trkpt>
    <trkpt lat="47.54330973" lon="7.94156195">
    <ele>306</ele>
    <time>2014-01-31T18:05:24Z</time>
    </trkpt>
    <trkpt lat="47.54378" lon="7.93961778">
    <ele>305</ele>
    <time>2014-01-31T18:06:16Z</time>
    </trkpt>
    <trkpt lat="47.54481945" lon="7.93720334">
    <ele>303</ele>
    <time>2014-01-31T18:07:22Z</time>
    </trkpt>
    <trkpt lat="47.545455" lon="7.93497389">
    <ele>301</ele>
    <time>2014-01-31T18:08:22Z</time>
    </trkpt>
    <trkpt lat="47.54561667" lon="7.93435612">
    <ele>298</ele>
    <time>2014-01-31T18:08:38Z</time>
    </trkpt>
    <trkpt lat="47.54595973" lon="7.93256612">
    <ele>298</ele>
    <time>2014-01-31T18:09:25Z</time>
    </trkpt>
    <trkpt lat="47.54599973" lon="7.931075">
    <ele>297</ele>
    <time>2014-01-31T18:10:04Z</time>
    </trkpt>
    <trkpt lat="47.54581889" lon="7.92923389">
    <ele>293</ele>
    <time>2014-01-31T18:10:52Z</time>
    </trkpt>
    <trkpt lat="47.54544834" lon="7.92689278">
    <ele>295</ele>
    <time>2014-01-31T18:11:54Z</time>
    </trkpt>
    <trkpt lat="47.54547639" lon="7.92463473">
    <ele>292</ele>
    <time>2014-01-31T18:12:53Z</time>
    </trkpt>
    <trkpt lat="47.54562056" lon="7.92256667">
    <ele>291</ele>
    <time>2014-01-31T18:13:47Z</time>
    </trkpt>
    <trkpt lat="47.54567167" lon="7.92210584">
    <ele>291</ele>
    <time>2014-01-31T18:13:59Z</time>
    </trkpt>
    <trkpt lat="47.54604889" lon="7.91953445">
    <ele>296</ele>
    <time>2014-01-31T18:15:08Z</time>
    </trkpt>
    <trkpt lat="47.54724417" lon="7.91566389">
    <ele>296</ele>
    <time>2014-01-31T18:16:52Z</time>
    </trkpt>
    <trkpt lat="47.547275" lon="7.91559112">
    <ele>296</ele>
    <time>2014-01-31T18:16:54Z</time>
    </trkpt>
    <trkpt lat="47.54797445" lon="7.91359084">
    <ele>296</ele>
    <time>2014-01-31T18:17:48Z</time>
    </trkpt>
    <trkpt lat="47.54913139" lon="7.91002445">
    <ele>295</ele>
    <time>2014-01-31T18:19:24Z</time>
    </trkpt>
    <trkpt lat="47.54920584" lon="7.91010112">
    <ele>294</ele>
    <time>2014-01-31T18:19:26Z</time>
    </trkpt>
    <trkpt lat="47.55003056" lon="7.91087056">
    <ele>291</ele>
    <time>2014-01-31T18:19:51Z</time>
    </trkpt>
    <trkpt lat="47.55140139" lon="7.90924417">
    <ele>292</ele>
    <time>2014-01-31T18:20:40Z</time>
    </trkpt>
    <trkpt lat="47.55313112" lon="7.90796973">
    <ele>291</ele>
    <time>2014-01-31T18:21:25Z</time>
    </trkpt>
    <trkpt lat="47.55582028" lon="7.90673973">
    <ele>288</ele>
    <time>2014-01-31T18:22:23Z</time>
    </trkpt>
    <trkpt lat="47.55698028" lon="7.90620667">
    <ele>286</ele>
    <time>2014-01-31T18:22:48Z</time>
    </trkpt>
    <trkpt lat="47.55708028" lon="7.90601806">
    <ele>286</ele>
    <time>2014-01-31T18:22:53Z</time>
    </trkpt>
    <trkpt lat="47.55747389" lon="7.9055975">
    <ele>288</ele>
    <time>2014-01-31T18:23:06Z</time>
    </trkpt>
    <trkpt lat="47.55788112" lon="7.90546695">
    <ele>289</ele>
    <time>2014-01-31T18:23:14Z</time>
    </trkpt>
    <trkpt lat="47.55830695" lon="7.90553473">
    <ele>289</ele>
    <time>2014-01-31T18:23:21Z</time>
    </trkpt>
    <trkpt lat="47.55924584" lon="7.90574584">
    <ele>288</ele>
    <time>2014-01-31T18:23:38Z</time>
    </trkpt>
    <trkpt lat="47.56231945" lon="7.90606639">
    <ele>288</ele>
    <time>2014-01-31T18:24:33Z</time>
    </trkpt>
    <trkpt lat="47.56420223" lon="7.90702667">
    <ele>292</ele>
    <time>2014-01-31T18:25:16Z</time>
    </trkpt>
    <trkpt lat="47.56525" lon="7.90717945">
    <ele>305</ele>
    <time>2014-01-31T18:25:38Z</time>
    </trkpt>
    <trkpt lat="47.56567612" lon="7.90768473">
    <ele>298</ele>
    <time>2014-01-31T18:25:53Z</time>
    </trkpt>
    <trkpt lat="47.56660695" lon="7.90813028">
    <ele>292</ele>
    <time>2014-01-31T18:26:13Z</time>
    </trkpt>
    <trkpt lat="47.56733778" lon="7.90835723">
    <ele>291</ele>
    <time>2014-01-31T18:26:27Z</time>
    </trkpt>
    <trkpt lat="47.56860945" lon="7.90782195">
    <ele>302</ele>
    <time>2014-01-31T18:26:56Z</time>
    </trkpt>
    <trkpt lat="47.57148195" lon="7.90616556">
    <ele>297</ele>
    <time>2014-01-31T18:28:03Z</time>
    </trkpt>
    <trkpt lat="47.57153195" lon="7.90610528">
    <ele>299</ele>
    <time>2014-01-31T18:28:06Z</time>
    </trkpt>
    <trkpt lat="47.57255695" lon="7.90550834">
    <ele>298</ele>
    <time>2014-01-31T18:28:43Z</time>
    </trkpt>
    <trkpt lat="47.57282195" lon="7.90546528">
    <ele>298</ele>
    <time>2014-01-31T18:28:50Z</time>
    </trkpt>
    <trkpt lat="47.572995" lon="7.90564612">
    <ele>296</ele>
    <time>2014-01-31T18:28:58Z</time>
    </trkpt>
    <trkpt lat="47.57319723" lon="7.90605251">
    <ele>296</ele>
    <time>2014-01-31T18:29:15Z</time>
    </trkpt>
    <trkpt lat="47.57345778" lon="7.90614195">
    <ele>297</ele>
    <time>2014-01-31T18:29:23Z</time>
    </trkpt>
    <trkpt lat="47.57470501" lon="7.90507639">
    <ele>308</ele>
    <time>2014-01-31T18:30:23Z</time>
    </trkpt>
    <trkpt lat="47.57478306" lon="7.90503334">
    <ele>309</ele>
    <time>2014-01-31T18:30:26Z</time>
    </trkpt>
    <trkpt lat="47.57579167" lon="7.90443362">
    <ele>312</ele>
    <time>2014-01-31T18:31:04Z</time>
    </trkpt>
    <trkpt lat="47.57663501" lon="7.90353">
    <ele>306</ele>
    <time>2014-01-31T18:31:48Z</time>
    </trkpt>
    <trkpt lat="47.57721251" lon="7.90297834">
    <ele>298</ele>
    <time>2014-01-31T18:32:15Z</time>
    </trkpt>
    <trkpt lat="47.5773625" lon="7.90314473">
    <ele>295</ele>
    <time>2014-01-31T18:32:23Z</time>
    </trkpt>
    <trkpt lat="47.57765362" lon="7.90414139">
    <ele>295</ele>
    <time>2014-01-31T18:33:04Z</time>
    </trkpt>
    <trkpt lat="47.57845612" lon="7.90390195">
    <ele>295</ele>
    <time>2014-01-31T18:33:28Z</time>
    </trkpt>
    <trkpt lat="47.57877751" lon="7.90340028">
    <ele>296</ele>
    <time>2014-01-31T18:33:50Z</time>
    </trkpt>
    <trkpt lat="47.57946417" lon="7.90265917">
    <ele>296</ele>
    <time>2014-01-31T18:34:26Z</time>
    </trkpt>
    <trkpt lat="47.58035695" lon="7.90153667">
    <ele>297</ele>
    <time>2014-01-31T18:35:18Z</time>
    </trkpt>
    <trkpt lat="47.58084973" lon="7.90026667">
    <ele>302</ele>
    <time>2014-01-31T18:36:13Z</time>
    </trkpt>
    <trkpt lat="47.5816375" lon="7.89882334">
    <ele>302</ele>
    <time>2014-01-31T18:37:16Z</time>
    </trkpt>
    <trkpt lat="47.58366306" lon="7.89691362">
    <ele>294</ele>
    <time>2014-01-31T18:38:52Z</time>
    </trkpt>
    <trkpt lat="47.58533028" lon="7.89397389">
    <ele>291</ele>
    <time>2014-01-31T18:41:01Z</time>
    </trkpt>
    <trkpt lat="47.58665195" lon="7.89110778">
    <ele>292</ele>
    <time>2014-01-31T18:43:05Z</time>
    </trkpt>
    <trkpt lat="47.58704056" lon="7.88969473">
    <ele>292</ele>
    <time>2014-01-31T18:44:04Z</time>
    </trkpt>
    <trkpt lat="47.58705084" lon="7.88932334">
    <ele>292</ele>
    <time>2014-01-31T18:44:19Z</time>
    </trkpt>
    <trkpt lat="47.58700695" lon="7.88909056">
    <ele>292</ele>
    <time>2014-01-31T18:44:28Z</time>
    </trkpt>
    <trkpt lat="47.58727528" lon="7.88896139">
    <ele>293</ele>
    <time>2014-01-31T18:44:37Z</time>
    </trkpt>
    <trkpt lat="47.58729612" lon="7.88822556">
    <ele>293</ele>
    <time>2014-01-31T18:45:07Z</time>
    </trkpt>
    <trkpt lat="47.58750501" lon="7.88622389">
    <ele>294</ele>
    <time>2014-01-31T18:46:30Z</time>
    </trkpt>
    <trkpt lat="47.58680667" lon="7.88383695">
    <ele>299</ele>
    <time>2014-01-31T18:48:12Z</time>
    </trkpt>
    <trkpt lat="47.58678556" lon="7.88191834">
    <ele>293</ele>
    <time>2014-01-31T18:49:31Z</time>
    </trkpt>
    <trkpt lat="47.58696084" lon="7.87953112">
    <ele>296</ele>
    <time>2014-01-31T18:51:10Z</time>
    </trkpt>
    <trkpt lat="47.58713945" lon="7.87716528">
    <ele>302</ele>
    <time>2014-01-31T18:52:49Z</time>
    </trkpt>
    <trkpt lat="47.58714862" lon="7.87652139">
    <ele>300</ele>
    <time>2014-01-31T18:53:15Z</time>
    </trkpt>
    <trkpt lat="47.58625612" lon="7.87547473">
    <ele>298</ele>
    <time>2014-01-31T18:54:04Z</time>
    </trkpt>
    <trkpt lat="47.58555806" lon="7.87303112">
    <ele>299</ele>
    <time>2014-01-31T18:55:46Z</time>
    </trkpt>
    <trkpt lat="47.58386806" lon="7.87100695">
    <ele>308</ele>
    <time>2014-01-31T18:57:25Z</time>
    </trkpt>
    <trkpt lat="47.58634862" lon="7.86918112">
    <ele>300</ele>
    <time>2014-01-31T18:59:07Z</time>
    </trkpt>
    <trkpt lat="47.58725778" lon="7.86841389">
    <ele>298</ele>
    <time>2014-01-31T18:59:47Z</time>
    </trkpt>
    <trkpt lat="47.58748945" lon="7.86805445">
    <ele>299</ele>
    <time>2014-01-31T19:00:03Z</time>
    </trkpt>
    <trkpt lat="47.58749112" lon="7.86768278">
    <ele>301</ele>
    <time>2014-01-31T19:00:19Z</time>
    </trkpt>
    <trkpt lat="47.58727862" lon="7.86528389">
    <ele>302</ele>
    <time>2014-01-31T19:01:58Z</time>
    </trkpt>
    <trkpt lat="47.58710639" lon="7.86412584">
    <ele>305</ele>
    <time>2014-01-31T19:02:47Z</time>
    </trkpt>
    <trkpt lat="47.58657778" lon="7.86192278">
    <ele>309</ele>
    <time>2014-01-31T19:04:20Z</time>
    </trkpt>
    <trkpt lat="47.58608278" lon="7.86110695">
    <ele>307</ele>
    <time>2014-01-31T19:04:56Z</time>
    </trkpt>
    <trkpt lat="47.58423" lon="7.85900556">
    <ele>308</ele>
    <time>2014-01-31T19:06:37Z</time>
    </trkpt>
    <trkpt lat="47.58393251" lon="7.85833501">
    <ele>306</ele>
    <time>2014-01-31T19:07:05Z</time>
    </trkpt>
    <trkpt lat="47.58363389" lon="7.85770723">
    <ele>303</ele>
    <time>2014-01-31T19:07:32Z</time>
    </trkpt>
    <trkpt lat="47.58353362" lon="7.85760889">
    <ele>303</ele>
    <time>2014-01-31T19:07:36Z</time>
    </trkpt>
    <trkpt lat="47.58343139" lon="7.8574525">
    <ele>304</ele>
    <time>2014-01-31T19:07:43Z</time>
    </trkpt>
    <trkpt lat="47.58290251" lon="7.85588223">
    <ele>307</ele>
    <time>2014-01-31T19:08:50Z</time>
    </trkpt>
    <trkpt lat="47.58184195" lon="7.85219806">
    <ele>305</ele>
    <time>2014-01-31T19:11:24Z</time>
    </trkpt>
    <trkpt lat="47.581025" lon="7.84995445">
    <ele>306</ele>
    <time>2014-01-31T19:12:59Z</time>
    </trkpt>
    <trkpt lat="47.5809125" lon="7.84890862">
    <ele>312</ele>
    <time>2014-01-31T19:13:44Z</time>
    </trkpt>
    <trkpt lat="47.58052556" lon="7.84292751">
    <ele>304</ele>
    <time>2014-01-31T19:17:50Z</time>
    </trkpt>
    <trkpt lat="47.58005195" lon="7.84044306">
    <ele>300</ele>
    <time>2014-01-31T19:19:33Z</time>
    </trkpt>
    <trkpt lat="47.58002445" lon="7.84025917">
    <ele>300</ele>
    <time>2014-01-31T19:19:37Z</time>
    </trkpt>
    <trkpt lat="47.57978" lon="7.83891556">
    <ele>297</ele>
    <time>2014-01-31T19:20:12Z</time>
    </trkpt>
    <trkpt lat="47.57956084" lon="7.8383625">
    <ele>294</ele>
    <time>2014-01-31T19:20:27Z</time>
    </trkpt>
    <trkpt lat="47.57923889" lon="7.83819028">
    <ele>291</ele>
    <time>2014-01-31T19:20:34Z</time>
    </trkpt>
    <trkpt lat="47.57863056" lon="7.83858695">
    <ele>292</ele>
    <time>2014-01-31T19:20:49Z</time>
    </trkpt>
    <trkpt lat="47.577765" lon="7.83919334">
    <ele>294</ele>
    <time>2014-01-31T19:21:11Z</time>
    </trkpt>
    <trkpt lat="47.57694417" lon="7.83965834">
    <ele>292</ele>
    <time>2014-01-31T19:21:30Z</time>
    </trkpt>
    <trkpt lat="47.57631695" lon="7.83984584">
    <ele>290</ele>
    <time>2014-01-31T19:21:42Z</time>
    </trkpt>
    <trkpt lat="47.57604834" lon="7.84000334">
    <ele>291</ele>
    <time>2014-01-31T19:21:48Z</time>
    </trkpt>
    <trkpt lat="47.57584889" lon="7.84028112">
    <ele>292</ele>
    <time>2014-01-31T19:21:56Z</time>
    </trkpt>
    <trkpt lat="47.57569306" lon="7.84046778">
    <ele>292</ele>
    <time>2014-01-31T19:22:01Z</time>
    </trkpt>
    <trkpt lat="47.57553806" lon="7.84070417">
    <ele>294</ele>
    <time>2014-01-31T19:22:08Z</time>
    </trkpt>
    <trkpt lat="47.57544834" lon="7.84079806">
    <ele>294</ele>
    <time>2014-01-31T19:22:10Z</time>
    </trkpt>
    <trkpt lat="47.57513584" lon="7.84061417">
    <ele>294</ele>
    <time>2014-01-31T19:22:17Z</time>
    </trkpt>
    <trkpt lat="47.57524278" lon="7.84078167">
    <ele>294</ele>
    <time>2014-01-31T19:22:21Z</time>
    </trkpt>
    <trkpt lat="47.57524334" lon="7.83973889">
    <ele>292</ele>
    <time>2014-01-31T19:22:48Z</time>
    </trkpt>
    <trkpt lat="47.57524334" lon="7.83973889">
    <ele>292</ele>
    <time>2014-01-31T19:22:48Z</time>
    </trkpt>
    <trkpt lat="47.57477639" lon="7.83979778">
    <ele>295</ele>
    <time>2014-01-31T19:22:57Z</time>
    </trkpt>
    <trkpt lat="47.57477639" lon="7.83979778">
    <ele>295</ele>
    <time>2014-01-31T19:22:57Z</time>
    </trkpt>
    <trkpt lat="47.57447334" lon="7.839625">
    <ele>297</ele>
    <time>2014-01-31T19:23:04Z</time>
    </trkpt>
    <trkpt lat="47.57451695" lon="7.83918723">
    <ele>298</ele>
    <time>2014-01-31T19:23:15Z</time>
    </trkpt>
    <trkpt lat="47.57451695" lon="7.83918723">
    <ele>298</ele>
    <time>2014-01-31T19:23:15Z</time>
    </trkpt>
    <trkpt lat="47.57533695" lon="7.83877501">
    <ele>294</ele>
    <time>2014-01-31T19:23:33Z</time>
    </trkpt>
    <trkpt lat="47.57533695" lon="7.83877501">
    <ele>294</ele>
    <time>2014-01-31T19:23:33Z</time>
    </trkpt>
    <trkpt lat="47.57525362" lon="7.83808528">
    <ele>297</ele>
    <time>2014-01-31T19:23:52Z</time>
    </trkpt>
    <trkpt lat="47.57608778" lon="7.83745973">
    <ele>298</ele>
    <time>2014-01-31T19:24:14Z</time>
    </trkpt>
    <trkpt lat="47.57600473" lon="7.83592306">
    <ele>301</ele>
    <time>2014-01-31T19:24:55Z</time>
    </trkpt>
    <trkpt lat="47.57595973" lon="7.83557945">
    <ele>302</ele>
    <time>2014-01-31T19:25:09Z</time>
    </trkpt>
    <trkpt lat="47.57571334" lon="7.83247389">
    <ele>295</ele>
    <time>2014-01-31T19:27:17Z</time>
    </trkpt>
    <trkpt lat="47.57576917" lon="7.83046056">
    <ele>296</ele>
    <time>2014-01-31T19:28:40Z</time>
    </trkpt>
    <trkpt lat="47.57575945" lon="7.82916917">
    <ele>297</ele>
    <time>2014-01-31T19:29:33Z</time>
    </trkpt>
    <trkpt lat="47.57570751" lon="7.82863112">
    <ele>296</ele>
    <time>2014-01-31T19:29:55Z</time>
    </trkpt>
    <trkpt lat="47.57534084" lon="7.82841028">
    <ele>293</ele>
    <time>2014-01-31T19:30:08Z</time>
    </trkpt>
    <trkpt lat="47.57411945" lon="7.82754306">
    <ele>296</ele>
    <time>2014-01-31T19:30:58Z</time>
    </trkpt>
    <trkpt lat="47.57279" lon="7.82638251">
    <ele>298</ele>
    <time>2014-01-31T19:31:59Z</time>
    </trkpt>
    <trkpt lat="47.57168723" lon="7.82539334">
    <ele>298</ele>
    <time>2014-01-31T19:32:50Z</time>
    </trkpt>
    <trkpt lat="47.57122973" lon="7.82453251">
    <ele>296</ele>
    <time>2014-01-31T19:33:27Z</time>
    </trkpt>
    <trkpt lat="47.57091584" lon="7.82389139">
    <ele>299</ele>
    <time>2014-01-31T19:33:55Z</time>
    </trkpt>
    <trkpt lat="47.57057417" lon="7.82327417">
    <ele>300</ele>
    <time>2014-01-31T19:34:22Z</time>
    </trkpt>
    <trkpt lat="47.57012362" lon="7.82303139">
    <ele>300</ele>
    <time>2014-01-31T19:34:38Z</time>
    </trkpt>
    <trkpt lat="47.56899139" lon="7.82294362">
    <ele>296</ele>
    <time>2014-01-31T19:35:09Z</time>
    </trkpt>
    <trkpt lat="47.56873889" lon="7.82289528">
    <ele>296</ele>
    <time>2014-01-31T19:35:16Z</time>
    </trkpt>
    <trkpt lat="47.56871667" lon="7.82290917">
    <ele>296</ele>
    <time>2014-01-31T19:35:16Z</time>
    </trkpt>
    <trkpt lat="47.56835306" lon="7.82286084">
    <ele>297</ele>
    <time>2014-01-31T19:35:22Z</time>
    </trkpt>
    <trkpt lat="47.56747473" lon="7.82257751">
    <ele>294</ele>
    <time>2014-01-31T19:35:39Z</time>
    </trkpt>
    <trkpt lat="47.56696167" lon="7.82231667">
    <ele>299</ele>
    <time>2014-01-31T19:35:51Z</time>
    </trkpt>
    <trkpt lat="47.56668945" lon="7.82210639">
    <ele>304</ele>
    <time>2014-01-31T19:35:59Z</time>
    </trkpt>
    <trkpt lat="47.56641862" lon="7.82181806">
    <ele>309</ele>
    <time>2014-01-31T19:36:09Z</time>
    </trkpt>
    <trkpt lat="47.56626973" lon="7.82146306">
    <ele>312</ele>
    <time>2014-01-31T19:36:19Z</time>
    </trkpt>
    <trkpt lat="47.5661825" lon="7.82120945">
    <ele>312</ele>
    <time>2014-01-31T19:36:25Z</time>
    </trkpt>
    <trkpt lat="47.56614556" lon="7.82098195">
    <ele>311</ele>
    <time>2014-01-31T19:36:34Z</time>
    </trkpt>
    <trkpt lat="47.56632584" lon="7.81923389">
    <ele>306</ele>
    <time>2014-01-31T19:37:46Z</time>
    </trkpt>
    <trkpt lat="47.56664167" lon="7.81775139">
    <ele>310</ele>
    <time>2014-01-31T19:38:49Z</time>
    </trkpt>
    <trkpt lat="47.56686417" lon="7.8158625">
    <ele>300</ele>
    <time>2014-01-31T19:40:07Z</time>
    </trkpt>
    <trkpt lat="47.5666125" lon="7.81415417">
    <ele>300</ele>
    <time>2014-01-31T19:41:17Z</time>
    </trkpt>
    <trkpt lat="47.56663723" lon="7.81318639">
    <ele>298</ele>
    <time>2014-01-31T19:41:56Z</time>
    </trkpt>
    <trkpt lat="47.56683639" lon="7.81191001">
    <ele>297</ele>
    <time>2014-01-31T19:42:48Z</time>
    </trkpt>
    <trkpt lat="47.56572334" lon="7.80836862">
    <ele>295</ele>
    <time>2014-01-31T19:45:17Z</time>
    </trkpt>
    <trkpt lat="47.56553806" lon="7.80801723">
    <ele>295</ele>
    <time>2014-01-31T19:45:32Z</time>
    </trkpt>
    <trkpt lat="47.56498584" lon="7.80654001">
    <ele>292</ele>
    <time>2014-01-31T19:46:34Z</time>
    </trkpt>
    <trkpt lat="47.56453306" lon="7.80556139">
    <ele>288</ele>
    <time>2014-01-31T19:47:16Z</time>
    </trkpt>
    <trkpt lat="47.56403167" lon="7.80463917">
    <ele>279</ele>
    <time>2014-01-31T19:47:56Z</time>
    </trkpt>
    <trkpt lat="47.56407639" lon="7.80448389">
    <ele>279</ele>
    <time>2014-01-31T19:48:00Z</time>
    </trkpt>
    <trkpt lat="47.563945" lon="7.80452889">
    <ele>279</ele>
    <time>2014-01-31T19:48:02Z</time>
    </trkpt>
    <trkpt lat="47.56362028" lon="7.80474889">
    <ele>280</ele>
    <time>2014-01-31T19:48:10Z</time>
    </trkpt>
    <trkpt lat="47.55969834" lon="7.80212112">
    <ele>278</ele>
    <time>2014-01-31T19:49:48Z</time>
    </trkpt>
    <trkpt lat="47.55940584" lon="7.80199362">
    <ele>279</ele>
    <time>2014-01-31T19:49:54Z</time>
    </trkpt>
    <trkpt lat="47.55841278" lon="7.80158084">
    <ele>280</ele>
    <time>2014-01-31T19:50:15Z</time>
    </trkpt>
    <trkpt lat="47.55731334" lon="7.80007584">
    <ele>280</ele>
    <time>2014-01-31T19:50:59Z</time>
    </trkpt>
    <trkpt lat="47.55562612" lon="7.79761945">
    <ele>287</ele>
    <time>2014-01-31T19:52:12Z</time>
    </trkpt>
    <trkpt lat="47.55527723" lon="7.79697584">
    <ele>285</ele>
    <time>2014-01-31T19:52:30Z</time>
    </trkpt>
    <trkpt lat="47.55527723" lon="7.79697584">
    <ele>285</ele>
    <time>2014-01-31T19:52:30Z</time>
    </trkpt>
    <trkpt lat="47.55559389" lon="7.79676195">
    <ele>282</ele>
    <time>2014-01-31T19:52:38Z</time>
    </trkpt>
    <trkpt lat="47.55542917" lon="7.79584945">
    <ele>278</ele>
    <time>2014-01-31T19:53:02Z</time>
    </trkpt>
    <trkpt lat="47.55531556" lon="7.79481556">
    <ele>277</ele>
    <time>2014-01-31T19:53:29Z</time>
    </trkpt>
    <trkpt lat="47.55530389" lon="7.79317445">
    <ele>279</ele>
    <time>2014-01-31T19:54:12Z</time>
    </trkpt>
    <trkpt lat="47.55498251" lon="7.79156862">
    <ele>281</ele>
    <time>2014-01-31T19:54:55Z</time>
    </trkpt>
    <trkpt lat="47.55489389" lon="7.79116139">
    <ele>280</ele>
    <time>2014-01-31T19:55:05Z</time>
    </trkpt>
    <trkpt lat="47.55476584" lon="7.79087528">
    <ele>280</ele>
    <time>2014-01-31T19:55:12Z</time>
    </trkpt>
    <trkpt lat="47.55473306" lon="7.79087945">
    <ele>280</ele>
    <time>2014-01-31T19:55:12Z</time>
    </trkpt>
    <trkpt lat="47.55448028" lon="7.79070889">
    <ele>280</ele>
    <time>2014-01-31T19:55:18Z</time>
    </trkpt>
    <trkpt lat="47.55427334" lon="7.79051723">
    <ele>280</ele>
    <time>2014-01-31T19:55:24Z</time>
    </trkpt>
    <trkpt lat="47.55382251" lon="7.79029723">
    <ele>280</ele>
    <time>2014-01-31T19:55:33Z</time>
    </trkpt>
    <trkpt lat="47.55353334" lon="7.79003278">
    <ele>279</ele>
    <time>2014-01-31T19:55:41Z</time>
    </trkpt>
    <trkpt lat="47.55354639" lon="7.79002862">
    <ele>279</ele>
    <time>2014-01-31T19:55:41Z</time>
    </trkpt>
    <trkpt lat="47.55316" lon="7.78926389">
    <ele>277</ele>
    <time>2014-01-31T19:56:02Z</time>
    </trkpt>
    <trkpt lat="47.55251278" lon="7.78814389">
    <ele>285</ele>
    <time>2014-01-31T19:56:35Z</time>
    </trkpt>
    <trkpt lat="47.55185167" lon="7.78690806">
    <ele>282</ele>
    <time>2014-01-31T19:57:09Z</time>
    </trkpt>
    <trkpt lat="47.55170278" lon="7.78650917">
    <ele>280</ele>
    <time>2014-01-31T19:57:19Z</time>
    </trkpt>
    <trkpt lat="47.55170667" lon="7.78650584">
    <ele>280</ele>
    <time>2014-01-31T19:57:19Z</time>
    </trkpt>
    <trkpt lat="47.55159695" lon="7.78521528">
    <ele>280</ele>
    <time>2014-01-31T19:57:53Z</time>
    </trkpt>
    <trkpt lat="47.55160251" lon="7.78494612">
    <ele>280</ele>
    <time>2014-01-31T19:58:00Z</time>
    </trkpt>
    <trkpt lat="47.55167639" lon="7.78476084">
    <ele>280</ele>
    <time>2014-01-31T19:58:05Z</time>
    </trkpt>
    <trkpt lat="47.55160528" lon="7.78448556">
    <ele>280</ele>
    <time>2014-01-31T19:58:12Z</time>
    </trkpt>
    <trkpt lat="47.55151695" lon="7.78431695">
    <ele>280</ele>
    <time>2014-01-31T19:58:16Z</time>
    </trkpt>
    <trkpt lat="47.55134862" lon="7.78207834">
    <ele>282</ele>
    <time>2014-01-31T19:59:15Z</time>
    </trkpt>
    <trkpt lat="47.55108167" lon="7.77909556">
    <ele>283</ele>
    <time>2014-01-31T20:00:34Z</time>
    </trkpt>
    <trkpt lat="47.55097945" lon="7.77800556">
    <ele>283</ele>
    <time>2014-01-31T20:01:02Z</time>
    </trkpt>
    <trkpt lat="47.55075139" lon="7.77664917">
    <ele>283</ele>
    <time>2014-01-31T20:01:38Z</time>
    </trkpt>
    <trkpt lat="47.55050112" lon="7.77533223">
    <ele>283</ele>
    <time>2014-01-31T20:02:13Z</time>
    </trkpt>
    <trkpt lat="47.55025139" lon="7.77431028">
    <ele>284</ele>
    <time>2014-01-31T20:02:40Z</time>
    </trkpt>
    <trkpt lat="47.5501425" lon="7.77293667">
    <ele>285</ele>
    <time>2014-01-31T20:03:16Z</time>
    </trkpt>
    <trkpt lat="47.55015362" lon="7.7721975">
    <ele>284</ele>
    <time>2014-01-31T20:03:35Z</time>
    </trkpt>
    <trkpt lat="47.55008473" lon="7.77162112">
    <ele>283</ele>
    <time>2014-01-31T20:03:50Z</time>
    </trkpt>
    <trkpt lat="47.54992028" lon="7.77101056">
    <ele>284</ele>
    <time>2014-01-31T20:04:06Z</time>
    </trkpt>
    <trkpt lat="47.54955556" lon="7.76960501">
    <ele>285</ele>
    <time>2014-01-31T20:04:44Z</time>
    </trkpt>
    <trkpt lat="47.54891167" lon="7.76710528">
    <ele>284</ele>
    <time>2014-01-31T20:05:51Z</time>
    </trkpt>
    <trkpt lat="47.54828389" lon="7.76461501">
    <ele>284</ele>
    <time>2014-01-31T20:06:57Z</time>
    </trkpt>
    <trkpt lat="47.54783584" lon="7.76290695">
    <ele>283</ele>
    <time>2014-01-31T20:07:42Z</time>
    </trkpt>
    <trkpt lat="47.54752501" lon="7.76209862">
    <ele>283</ele>
    <time>2014-01-31T20:08:04Z</time>
    </trkpt>
    <trkpt lat="47.54714667" lon="7.76109639">
    <ele>279</ele>
    <time>2014-01-31T20:08:31Z</time>
    </trkpt>
    <trkpt lat="47.54702001" lon="7.76062528">
    <ele>277</ele>
    <time>2014-01-31T20:08:43Z</time>
    </trkpt>
    <trkpt lat="47.54703723" lon="7.76061778">
    <ele>277</ele>
    <time>2014-01-31T20:08:43Z</time>
    </trkpt>
    <trkpt lat="47.54686806" lon="7.76010973">
    <ele>277</ele>
    <time>2014-01-31T20:08:56Z</time>
    </trkpt>
    <trkpt lat="47.546845" lon="7.76009362">
    <ele>277</ele>
    <time>2014-01-31T20:08:56Z</time>
    </trkpt>
    <trkpt lat="47.54661473" lon="7.75970445">
    <ele>279</ele>
    <time>2014-01-31T20:09:07Z</time>
    </trkpt>
    <trkpt lat="47.54645223" lon="7.75952695">
    <ele>280</ele>
    <time>2014-01-31T20:09:12Z</time>
    </trkpt>
    <trkpt lat="47.54599667" lon="7.75853028">
    <ele>281</ele>
    <time>2014-01-31T20:09:39Z</time>
    </trkpt>
    <trkpt lat="47.54549167" lon="7.75733723">
    <ele>283</ele>
    <time>2014-01-31T20:10:12Z</time>
    </trkpt>
    <trkpt lat="47.54531584" lon="7.75681084">
    <ele>286</ele>
    <time>2014-01-31T20:10:27Z</time>
    </trkpt>
    <trkpt lat="47.54519334" lon="7.75635139">
    <ele>288</ele>
    <time>2014-01-31T20:10:39Z</time>
    </trkpt>
    <trkpt lat="47.54496389" lon="7.75611389">
    <ele>288</ele>
    <time>2014-01-31T20:10:46Z</time>
    </trkpt>
    <trkpt lat="47.54463112" lon="7.75515084">
    <ele>292</ele>
    <time>2014-01-31T20:11:13Z</time>
    </trkpt>
    <trkpt lat="47.54385056" lon="7.75311834">
    <ele>297</ele>
    <time>2014-01-31T20:12:09Z</time>
    </trkpt>
    <trkpt lat="47.54316639" lon="7.75083806">
    <ele>295</ele>
    <time>2014-01-31T20:13:10Z</time>
    </trkpt>
    <trkpt lat="47.54260834" lon="7.74971695">
    <ele>292</ele>
    <time>2014-01-31T20:13:41Z</time>
    </trkpt>
    <trkpt lat="47.54175695" lon="7.74774139">
    <ele>290</ele>
    <time>2014-01-31T20:14:35Z</time>
    </trkpt>
    <trkpt lat="47.54104278" lon="7.74526278">
    <ele>294</ele>
    <time>2014-01-31T20:15:42Z</time>
    </trkpt>
    <trkpt lat="47.5406425" lon="7.74335306">
    <ele>293</ele>
    <time>2014-01-31T20:16:33Z</time>
    </trkpt>
    <trkpt lat="47.54051" lon="7.74159056">
    <ele>293</ele>
    <time>2014-01-31T20:17:19Z</time>
    </trkpt>
    <trkpt lat="47.54042" lon="7.74014584">
    <ele>296</ele>
    <time>2014-01-31T20:17:58Z</time>
    </trkpt>
    <trkpt lat="47.54034639" lon="7.73933862">
    <ele>296</ele>
    <time>2014-01-31T20:18:19Z</time>
    </trkpt>
    <trkpt lat="47.54036028" lon="7.73937667">
    <ele>296</ele>
    <time>2014-01-31T20:18:20Z</time>
    </trkpt>
    <trkpt lat="47.54028723" lon="7.73844584">
    <ele>296</ele>
    <time>2014-01-31T20:18:44Z</time>
    </trkpt>
    <trkpt lat="47.54008417" lon="7.737195">
    <ele>297</ele>
    <time>2014-01-31T20:19:17Z</time>
    </trkpt>
    <trkpt lat="47.53950695" lon="7.73495167">
    <ele>294</ele>
    <time>2014-01-31T20:20:17Z</time>
    </trkpt>
    <trkpt lat="47.53933056" lon="7.73409251">
    <ele>292</ele>
    <time>2014-01-31T20:20:39Z</time>
    </trkpt>
    <trkpt lat="47.53889834" lon="7.73242695">
    <ele>293</ele>
    <time>2014-01-31T20:21:24Z</time>
    </trkpt>
    <trkpt lat="47.53851334" lon="7.73081584">
    <ele>296</ele>
    <time>2014-01-31T20:22:07Z</time>
    </trkpt>
    <trkpt lat="47.53818612" lon="7.72922751">
    <ele>295</ele>
    <time>2014-01-31T20:22:49Z</time>
    </trkpt>
    <trkpt lat="47.53821223" lon="7.72919612">
    <ele>295</ele>
    <time>2014-01-31T20:22:49Z</time>
    </trkpt>
    <trkpt lat="47.53791667" lon="7.72935362">
    <ele>296</ele>
    <time>2014-01-31T20:22:55Z</time>
    </trkpt>
    <trkpt lat="47.53761167" lon="7.72956167">
    <ele>296</ele>
    <time>2014-01-31T20:23:02Z</time>
    </trkpt>
    <trkpt lat="47.53721723" lon="7.72979806">
    <ele>298</ele>
    <time>2014-01-31T20:23:11Z</time>
    </trkpt>
    <trkpt lat="47.53612695" lon="7.73061195">
    <ele>300</ele>
    <time>2014-01-31T20:23:40Z</time>
    </trkpt>
    <trkpt lat="47.53503195" lon="7.73142778">
    <ele>303</ele>
    <time>2014-01-31T20:24:09Z</time>
    </trkpt>
    <trkpt lat="47.53419112" lon="7.73211834">
    <ele>300</ele>
    <time>2014-01-31T20:24:32Z</time>
    </trkpt>
    <trkpt lat="47.53353362" lon="7.73284528">
    <ele>301</ele>
    <time>2014-01-31T20:24:54Z</time>
    </trkpt>
    <trkpt lat="47.53333945" lon="7.73314834">
    <ele>304</ele>
    <time>2014-01-31T20:25:03Z</time>
    </trkpt>
    <trkpt lat="47.53279639" lon="7.73227834">
    <ele>299</ele>
    <time>2014-01-31T20:25:28Z</time>
    </trkpt>
    <trkpt lat="47.53238695" lon="7.73138445">
    <ele>299</ele>
    <time>2014-01-31T20:25:52Z</time>
    </trkpt>
    <trkpt lat="47.53217278" lon="7.73009584">
    <ele>297</ele>
    <time>2014-01-31T20:26:26Z</time>
    </trkpt>
    <trkpt lat="47.5320225" lon="7.72895667">
    <ele>301</ele>
    <time>2014-01-31T20:26:57Z</time>
    </trkpt>
    <trkpt lat="47.53182862" lon="7.72810389">
    <ele>302</ele>
    <time>2014-01-31T20:27:20Z</time>
    </trkpt>
    <trkpt lat="47.53153945" lon="7.72746278">
    <ele>297</ele>
    <time>2014-01-31T20:27:37Z</time>
    </trkpt>
    <trkpt lat="47.53105084" lon="7.72650195">
    <ele>295</ele>
    <time>2014-01-31T20:28:03Z</time>
    </trkpt>
    <trkpt lat="47.53125389" lon="7.72627917">
    <ele>294</ele>
    <time>2014-01-31T20:28:09Z</time>
    </trkpt>
    <trkpt lat="47.53178667" lon="7.72551806">
    <ele>295</ele>
    <time>2014-01-31T20:28:31Z</time>
    </trkpt>
    <trkpt lat="47.53273028" lon="7.72382945">
    <ele>301</ele>
    <time>2014-01-31T20:29:20Z</time>
    </trkpt>
    <trkpt lat="47.53348334" lon="7.72280667">
    <ele>298</ele>
    <time>2014-01-31T20:29:50Z</time>
    </trkpt>
    <trkpt lat="47.53366584" lon="7.72248001">
    <ele>297</ele>
    <time>2014-01-31T20:29:59Z</time>
    </trkpt>
    <trkpt lat="47.53374945" lon="7.72197695">
    <ele>294</ele>
    <time>2014-01-31T20:30:12Z</time>
    </trkpt>
    <trkpt lat="47.53382445" lon="7.72154001">
    <ele>290</ele>
    <time>2014-01-31T20:30:23Z</time>
    </trkpt>
    <trkpt lat="47.53396806" lon="7.72078945">
    <ele>287</ele>
    <time>2014-01-31T20:30:43Z</time>
    </trkpt>
    <trkpt lat="47.53413445" lon="7.72037195">
    <ele>285</ele>
    <time>2014-01-31T20:30:54Z</time>
    </trkpt>
    <trkpt lat="47.53441639" lon="7.72021167">
    <ele>284</ele>
    <time>2014-01-31T20:31:00Z</time>
    </trkpt>
    <trkpt lat="47.53452139" lon="7.72018223">
    <ele>283</ele>
    <time>2014-01-31T20:31:02Z</time>
    </trkpt>
    <trkpt lat="47.53421139" lon="7.71904473">
    <ele>274</ele>
    <time>2014-01-31T20:31:32Z</time>
    </trkpt>
    <trkpt lat="47.53420917" lon="7.71902306">
    <ele>274</ele>
    <time>2014-01-31T20:31:32Z</time>
    </trkpt>
    <trkpt lat="47.53415334" lon="7.718685">
    <ele>271</ele>
    <time>2014-01-31T20:31:46Z</time>
    </trkpt>
    <trkpt lat="47.53412445" lon="7.71789556">
    <ele>269</ele>
    <time>2014-01-31T20:32:18Z</time>
    </trkpt>
    <trkpt lat="47.53418" lon="7.71762528">
    <ele>269</ele>
    <time>2014-01-31T20:32:29Z</time>
    </trkpt>
    <trkpt lat="47.53477834" lon="7.71660056">
    <ele>272</ele>
    <time>2014-01-31T20:33:15Z</time>
    </trkpt>
    <trkpt lat="47.5346" lon="7.71621028">
    <ele>272</ele>
    <time>2014-01-31T20:33:31Z</time>
    </trkpt>
    <trkpt lat="47.53428695" lon="7.71573223">
    <ele>273</ele>
    <time>2014-01-31T20:33:52Z</time>
    </trkpt>
    <trkpt lat="47.53397667" lon="7.71559306">
    <ele>271</ele>
    <time>2014-01-31T20:34:02Z</time>
    </trkpt>
    <trkpt lat="47.53370306" lon="7.71574306">
    <ele>267</ele>
    <time>2014-01-31T20:34:11Z</time>
    </trkpt>
    <trkpt lat="47.53301195" lon="7.71620306">
    <ele>263</ele>
    <time>2014-01-31T20:34:38Z</time>
    </trkpt>
    <trkpt lat="47.53240528" lon="7.71626195">
    <ele>267</ele>
    <time>2014-01-31T20:34:56Z</time>
    </trkpt>
    <trkpt lat="47.53190778" lon="7.71592028">
    <ele>271</ele>
    <time>2014-01-31T20:35:17Z</time>
    </trkpt>
    <trkpt lat="47.53123723" lon="7.71527223">
    <ele>272</ele>
    <time>2014-01-31T20:35:49Z</time>
    </trkpt>
    <trkpt lat="47.53092278" lon="7.71504306">
    <ele>273</ele>
    <time>2014-01-31T20:36:02Z</time>
    </trkpt>
    <trkpt lat="47.53030639" lon="7.71496334">
    <ele>272</ele>
    <time>2014-01-31T20:36:19Z</time>
    </trkpt>
    <trkpt lat="47.52986834" lon="7.71510223">
    <ele>272</ele>
    <time>2014-01-31T20:36:32Z</time>
    </trkpt>
    <trkpt lat="47.52935862" lon="7.71562528">
    <ele>269</ele>
    <time>2014-01-31T20:36:57Z</time>
    </trkpt>
    <trkpt lat="47.52897028" lon="7.71626778">
    <ele>265</ele>
    <time>2014-01-31T20:37:25Z</time>
    </trkpt>
    <trkpt lat="47.52830362" lon="7.71712695">
    <ele>265</ele>
    <time>2014-01-31T20:38:04Z</time>
    </trkpt>
    <trkpt lat="47.5278025" lon="7.71750862">
    <ele>269</ele>
    <time>2014-01-31T20:38:26Z</time>
    </trkpt>
    <trkpt lat="47.52756501" lon="7.71758723">
    <ele>270</ele>
    <time>2014-01-31T20:38:33Z</time>
    </trkpt>
    <trkpt lat="47.52746278" lon="7.717555">
    <ele>271</ele>
    <time>2014-01-31T20:38:36Z</time>
    </trkpt>
    <trkpt lat="47.52744" lon="7.71753445">
    <ele>271</ele>
    <time>2014-01-31T20:38:36Z</time>
    </trkpt>
    <trkpt lat="47.52678001" lon="7.71748917">
    <ele>272</ele>
    <time>2014-01-31T20:38:48Z</time>
    </trkpt>
    <trkpt lat="47.52675195" lon="7.71748445">
    <ele>272</ele>
    <time>2014-01-31T20:38:48Z</time>
    </trkpt>
    <trkpt lat="47.52619806" lon="7.71745945">
    <ele>271</ele>
    <time>2014-01-31T20:39:03Z</time>
    </trkpt>
    <trkpt lat="47.5255575" lon="7.71763362">
    <ele>272</ele>
    <time>2014-01-31T20:39:22Z</time>
    </trkpt>
    <trkpt lat="47.52502084" lon="7.71799445">
    <ele>276</ele>
    <time>2014-01-31T20:39:44Z</time>
    </trkpt>
    <trkpt lat="47.52443362" lon="7.71843084">
    <ele>275</ele>
    <time>2014-01-31T20:40:08Z</time>
    </trkpt>
    <trkpt lat="47.52393028" lon="7.71709945">
    <ele>283</ele>
    <time>2014-01-31T20:41:07Z</time>
    </trkpt>
    <trkpt lat="47.52362778" lon="7.71623056">
    <ele>289</ele>
    <time>2014-01-31T20:41:46Z</time>
    </trkpt>
    <trkpt lat="47.5235675" lon="7.71615584">
    <ele>289</ele>
    <time>2014-01-31T20:41:48Z</time>
    </trkpt>
    <trkpt lat="47.52301362" lon="7.71572556">
    <ele>294</ele>
    <time>2014-01-31T20:42:04Z</time>
    </trkpt>
    <trkpt lat="47.52351389" lon="7.71407862">
    <ele>298</ele>
    <time>2014-01-31T20:42:49Z</time>
    </trkpt>
    <trkpt lat="47.52359695" lon="7.71363584">
    <ele>300</ele>
    <time>2014-01-31T20:43:01Z</time>
    </trkpt>
    <trkpt lat="47.52368334" lon="7.71316362">
    <ele>299</ele>
    <time>2014-01-31T20:43:13Z</time>
    </trkpt>
    <trkpt lat="47.52371084" lon="7.71261445">
    <ele>298</ele>
    <time>2014-01-31T20:43:27Z</time>
    </trkpt>
    <trkpt lat="47.52379473" lon="7.71209362">
    <ele>296</ele>
    <time>2014-01-31T20:43:40Z</time>
    </trkpt>
    <trkpt lat="47.52348056" lon="7.71198112">
    <ele>296</ele>
    <time>2014-01-31T20:43:46Z</time>
    </trkpt>
    <trkpt lat="47.5234725" lon="7.71198639">
    <ele>296</ele>
    <time>2014-01-31T20:43:46Z</time>
    </trkpt>
    <trkpt lat="47.52337445" lon="7.71223778">
    <ele>296</ele>
    <time>2014-01-31T20:43:52Z</time>
    </trkpt>
    <trkpt lat="47.52320167" lon="7.71228223">
    <ele>296</ele>
    <time>2014-01-31T20:43:55Z</time>
    </trkpt>
    <trkpt lat="47.52303862" lon="7.71214362">
    <ele>294</ele>
    <time>2014-01-31T20:43:59Z</time>
    </trkpt>
    <trkpt lat="47.52299306" lon="7.7118075">
    <ele>294</ele>
    <time>2014-01-31T20:44:07Z</time>
    </trkpt>
    <trkpt lat="47.52300445" lon="7.71182001">
    <ele>294</ele>
    <time>2014-01-31T20:44:07Z</time>
    </trkpt>
    <trkpt lat="47.52188362" lon="7.71056862">
    <ele>302</ele>
    <time>2014-01-31T20:44:47Z</time>
    </trkpt>
    <trkpt lat="47.52150723" lon="7.71005417">
    <ele>303</ele>
    <time>2014-01-31T20:45:02Z</time>
    </trkpt>
    <trkpt lat="47.52144389" lon="7.7098225">
    <ele>303</ele>
    <time>2014-01-31T20:45:08Z</time>
    </trkpt>
    <trkpt lat="47.52144112" lon="7.70977862">
    <ele>304</ele>
    <time>2014-01-31T20:45:09Z</time>
    </trkpt>
    <trkpt lat="47.52133695" lon="7.70920445">
    <ele>306</ele>
    <time>2014-01-31T20:45:24Z</time>
    </trkpt>
    <trkpt lat="47.52112195" lon="7.70811112">
    <ele>302</ele>
    <time>2014-01-31T20:45:53Z</time>
    </trkpt>
    <trkpt lat="47.52066028" lon="7.70635417">
    <ele>300</ele>
    <time>2014-01-31T20:46:40Z</time>
    </trkpt>
    <trkpt lat="47.52038473" lon="7.70537945">
    <ele>301</ele>
    <time>2014-01-31T20:47:06Z</time>
    </trkpt>
    <trkpt lat="47.51977584" lon="7.70329195">
    <ele>298</ele>
    <time>2014-01-31T20:48:02Z</time>
    </trkpt>
    <trkpt lat="47.51936723" lon="7.7015575">
    <ele>293</ele>
    <time>2014-01-31T20:48:48Z</time>
    </trkpt>
    <trkpt lat="47.51920139" lon="7.70049528">
    <ele>293</ele>
    <time>2014-01-31T20:49:16Z</time>
    </trkpt>
    <trkpt lat="47.51908278" lon="7.69956695">
    <ele>294</ele>
    <time>2014-01-31T20:49:40Z</time>
    </trkpt>
    <trkpt lat="47.51908278" lon="7.69956695">
    <ele>294</ele>
    <time>2014-01-31T20:49:40Z</time>
    </trkpt>
    <trkpt lat="47.5183725" lon="7.69966223">
    <ele>294</ele>
    <time>2014-01-31T20:49:52Z</time>
    </trkpt>
    <trkpt lat="47.51794001" lon="7.69998028">
    <ele>294</ele>
    <time>2014-01-31T20:50:03Z</time>
    </trkpt>
    <trkpt lat="47.51755445" lon="7.70020445">
    <ele>298</ele>
    <time>2014-01-31T20:50:13Z</time>
    </trkpt>
    <trkpt lat="47.51733501" lon="7.70023334">
    <ele>301</ele>
    <time>2014-01-31T20:50:17Z</time>
    </trkpt>
    <trkpt lat="47.51727862" lon="7.70009223">
    <ele>301</ele>
    <time>2014-01-31T20:50:20Z</time>
    </trkpt>
    <trkpt lat="47.51712889" lon="7.69971417">
    <ele>302</ele>
    <time>2014-01-31T20:50:30Z</time>
    </trkpt>
    <trkpt lat="47.51697528" lon="7.6990025">
    <ele>302</ele>
    <time>2014-01-31T20:50:49Z</time>
    </trkpt>
    <trkpt lat="47.51688334" lon="7.69778806">
    <ele>302</ele>
    <time>2014-01-31T20:51:21Z</time>
    </trkpt>
    <trkpt lat="47.51680612" lon="7.69690751">
    <ele>304</ele>
    <time>2014-01-31T20:51:44Z</time>
    </trkpt>
    <trkpt lat="47.51680028" lon="7.69638278">
    <ele>306</ele>
    <time>2014-01-31T20:51:58Z</time>
    </trkpt>
    <trkpt lat="47.51706862" lon="7.69582751">
    <ele>307</ele>
    <time>2014-01-31T20:52:13Z</time>
    </trkpt>
    <trkpt lat="47.51729112" lon="7.69548806">
    <ele>307</ele>
    <time>2014-01-31T20:52:22Z</time>
    </trkpt>
    <trkpt lat="47.51729889" lon="7.69533473">
    <ele>307</ele>
    <time>2014-01-31T20:52:26Z</time>
    </trkpt>
    <trkpt lat="47.51729445" lon="7.69530445">
    <ele>307</ele>
    <time>2014-01-31T20:52:26Z</time>
    </trkpt>
    <trkpt lat="47.51728612" lon="7.69505889">
    <ele>306</ele>
    <time>2014-01-31T20:52:32Z</time>
    </trkpt>
    <trkpt lat="47.51714917" lon="7.69439445">
    <ele>303</ele>
    <time>2014-01-31T20:52:49Z</time>
    </trkpt>
    <trkpt lat="47.51697473" lon="7.69323334">
    <ele>300</ele>
    <time>2014-01-31T20:53:19Z</time>
    </trkpt>
    <trkpt lat="47.51663501" lon="7.69321445">
    <ele>305</ele>
    <time>2014-01-31T20:53:26Z</time>
    </trkpt>
    <trkpt lat="47.51661973" lon="7.69187889">
    <ele>300</ele>
    <time>2014-01-31T20:54:01Z</time>
    </trkpt>
    <trkpt lat="47.5166525" lon="7.69051862">
    <ele>295</ele>
    <time>2014-01-31T20:54:37Z</time>
    </trkpt>
    <trkpt lat="47.51670223" lon="7.68920528">
    <ele>297</ele>
    <time>2014-01-31T20:55:12Z</time>
    </trkpt>
    <trkpt lat="47.51689612" lon="7.68779334">
    <ele>298</ele>
    <time>2014-01-31T20:55:49Z</time>
    </trkpt>
    <trkpt lat="47.51730028" lon="7.68598695">
    <ele>297</ele>
    <time>2014-01-31T20:56:37Z</time>
    </trkpt>
    <trkpt lat="47.51730723" lon="7.68598389">
    <ele>297</ele>
    <time>2014-01-31T20:56:37Z</time>
    </trkpt>
    <trkpt lat="47.51758584" lon="7.68450806">
    <ele>298</ele>
    <time>2014-01-31T20:57:16Z</time>
    </trkpt>
    <trkpt lat="47.51781695" lon="7.68354806">
    <ele>296</ele>
    <time>2014-01-31T20:57:41Z</time>
    </trkpt>
    <trkpt lat="47.51803167" lon="7.68254084">
    <ele>294</ele>
    <time>2014-01-31T20:58:07Z</time>
    </trkpt>
    <trkpt lat="47.51820001" lon="7.68172556">
    <ele>290</ele>
    <time>2014-01-31T20:58:28Z</time>
    </trkpt>
    <trkpt lat="47.5187525" lon="7.68059056">
    <ele>293</ele>
    <time>2014-01-31T20:59:00Z</time>
    </trkpt>
    <trkpt lat="47.51926528" lon="7.67970695">
    <ele>297</ele>
    <time>2014-01-31T20:59:26Z</time>
    </trkpt>
    <trkpt lat="47.51957862" lon="7.67937501">
    <ele>299</ele>
    <time>2014-01-31T20:59:36Z</time>
    </trkpt>
    <trkpt lat="47.5200975" lon="7.67950723">
    <ele>295</ele>
    <time>2014-01-31T20:59:45Z</time>
    </trkpt>
    <trkpt lat="47.52036028" lon="7.67962028">
    <ele>294</ele>
    <time>2014-01-31T20:59:50Z</time>
    </trkpt>
    <trkpt lat="47.52089806" lon="7.67949639">
    <ele>292</ele>
    <time>2014-01-31T21:00:00Z</time>
    </trkpt>
    <trkpt lat="47.52134917" lon="7.679345">
    <ele>293</ele>
    <time>2014-01-31T21:00:09Z</time>
    </trkpt>
    <trkpt lat="47.52136056" lon="7.6793125">
    <ele>293</ele>
    <time>2014-01-31T21:00:09Z</time>
    </trkpt>
    <trkpt lat="47.52128334" lon="7.67799278">
    <ele>304</ele>
    <time>2014-01-31T21:00:46Z</time>
    </trkpt>
    <trkpt lat="47.52117667" lon="7.67665862">
    <ele>300</ele>
    <time>2014-01-31T21:01:21Z</time>
    </trkpt>
    <trkpt lat="47.52110362" lon="7.67527501">
    <ele>292</ele>
    <time>2014-01-31T21:01:57Z</time>
    </trkpt>
    <trkpt lat="47.52099056" lon="7.67383389">
    <ele>287</ele>
    <time>2014-01-31T21:02:35Z</time>
    </trkpt>
    <trkpt lat="47.52091334" lon="7.67242167">
    <ele>291</ele>
    <time>2014-01-31T21:03:13Z</time>
    </trkpt>
    <trkpt lat="47.52091362" lon="7.67143306">
    <ele>289</ele>
    <time>2014-01-31T21:03:39Z</time>
    </trkpt>
    <trkpt lat="47.52094834" lon="7.67046195">
    <ele>288</ele>
    <time>2014-01-31T21:04:04Z</time>
    </trkpt>
    <trkpt lat="47.52094834" lon="7.67046195">
    <ele>288</ele>
    <time>2014-01-31T21:04:04Z</time>
    </trkpt>
    <trkpt lat="47.52108667" lon="7.66866584">
    <ele>288</ele>
    <time>2014-01-31T21:04:51Z</time>
    </trkpt>
    <trkpt lat="47.52108667" lon="7.66866584">
    <ele>288</ele>
    <time>2014-01-31T21:04:51Z</time>
    </trkpt>
    <trkpt lat="47.52115667" lon="7.66806862">
    <ele>285</ele>
    <time>2014-01-31T21:05:06Z</time>
    </trkpt>
    <trkpt lat="47.52137417" lon="7.66708306">
    <ele>281</ele>
    <time>2014-01-31T21:05:32Z</time>
    </trkpt>
    <trkpt lat="47.52183028" lon="7.66555028">
    <ele>281</ele>
    <time>2014-01-31T21:06:13Z</time>
    </trkpt>
    <trkpt lat="47.52251389" lon="7.66351112">
    <ele>284</ele>
    <time>2014-01-31T21:07:09Z</time>
    </trkpt>
    <trkpt lat="47.52255389" lon="7.66324695">
    <ele>284</ele>
    <time>2014-01-31T21:07:16Z</time>
    </trkpt>
    <trkpt lat="47.52243501" lon="7.66290695">
    <ele>289</ele>
    <time>2014-01-31T21:07:26Z</time>
    </trkpt>
    <trkpt lat="47.52246139" lon="7.66273945">
    <ele>293</ele>
    <time>2014-01-31T21:07:31Z</time>
    </trkpt>
    <trkpt lat="47.52254778" lon="7.66258001">
    <ele>293</ele>
    <time>2014-01-31T21:07:35Z</time>
    </trkpt>
    <trkpt lat="47.52270584" lon="7.66240167">
    <ele>296</ele>
    <time>2014-01-31T21:07:41Z</time>
    </trkpt>
    <trkpt lat="47.52296584" lon="7.66225112">
    <ele>294</ele>
    <time>2014-01-31T21:07:47Z</time>
    </trkpt>
    <trkpt lat="47.52322417" lon="7.66142973">
    <ele>298</ele>
    <time>2014-01-31T21:08:10Z</time>
    </trkpt>
    <trkpt lat="47.52346806" lon="7.66061695">
    <ele>296</ele>
    <time>2014-01-31T21:08:31Z</time>
    </trkpt>
    <trkpt lat="47.52368056" lon="7.65977084">
    <ele>294</ele>
    <time>2014-01-31T21:08:53Z</time>
    </trkpt>
    <trkpt lat="47.52391917" lon="7.65838195">
    <ele>291</ele>
    <time>2014-01-31T21:09:30Z</time>
    </trkpt>
    <trkpt lat="47.52398139" lon="7.65791389">
    <ele>290</ele>
    <time>2014-01-31T21:09:42Z</time>
    </trkpt>
    <trkpt lat="47.52399445" lon="7.65793028">
    <ele>290</ele>
    <time>2014-01-31T21:09:42Z</time>
    </trkpt>
    <trkpt lat="47.52425056" lon="7.65588028">
    <ele>288</ele>
    <time>2014-01-31T21:10:36Z</time>
    </trkpt>
    <trkpt lat="47.52436862" lon="7.65492306">
    <ele>290</ele>
    <time>2014-01-31T21:11:01Z</time>
    </trkpt>
    <trkpt lat="47.52450195" lon="7.65389362">
    <ele>288</ele>
    <time>2014-01-31T21:11:28Z</time>
    </trkpt>
    <trkpt lat="47.52454723" lon="7.65317167">
    <ele>288</ele>
    <time>2014-01-31T21:11:47Z</time>
    </trkpt>
    <trkpt lat="47.52447723" lon="7.652105">
    <ele>287</ele>
    <time>2014-01-31T21:12:15Z</time>
    </trkpt>
    <trkpt lat="47.52422667" lon="7.65108556">
    <ele>286</ele>
    <time>2014-01-31T21:12:42Z</time>
    </trkpt>
    <trkpt lat="47.52384223" lon="7.64999806">
    <ele>287</ele>
    <time>2014-01-31T21:13:11Z</time>
    </trkpt>
    <trkpt lat="47.52337834" lon="7.64903195">
    <ele>293</ele>
    <time>2014-01-31T21:13:39Z</time>
    </trkpt>
    <trkpt lat="47.52232417" lon="7.64734139">
    <ele>296</ele>
    <time>2014-01-31T21:14:28Z</time>
    </trkpt>
    <trkpt lat="47.52190667" lon="7.64680528">
    <ele>295</ele>
    <time>2014-01-31T21:14:44Z</time>
    </trkpt>
    <trkpt lat="47.52187251" lon="7.64604084">
    <ele>297</ele>
    <time>2014-01-31T21:15:04Z</time>
    </trkpt>
    <trkpt lat="47.52185973" lon="7.64570056">
    <ele>299</ele>
    <time>2014-01-31T21:15:13Z</time>
    </trkpt>
    <trkpt lat="47.52218028" lon="7.64507362">
    <ele>296</ele>
    <time>2014-01-31T21:15:30Z</time>
    </trkpt>
    <trkpt lat="47.52187751" lon="7.64465528">
    <ele>301</ele>
    <time>2014-01-31T21:15:43Z</time>
    </trkpt>
    <trkpt lat="47.52202306" lon="7.64391612">
    <ele>299</ele>
    <time>2014-01-31T21:16:02Z</time>
    </trkpt>
    <trkpt lat="47.52206139" lon="7.64332389">
    <ele>298</ele>
    <time>2014-01-31T21:16:17Z</time>
    </trkpt>
    <trkpt lat="47.52206334" lon="7.64330528">
    <ele>298</ele>
    <time>2014-01-31T21:16:17Z</time>
    </trkpt>
    <trkpt lat="47.52206473" lon="7.64297723">
    <ele>298</ele>
    <time>2014-01-31T21:16:25Z</time>
    </trkpt>
    <trkpt lat="47.52201806" lon="7.64207806">
    <ele>299</ele>
    <time>2014-01-31T21:16:49Z</time>
    </trkpt>
    <trkpt lat="47.52204667" lon="7.64162306">
    <ele>299</ele>
    <time>2014-01-31T21:17:01Z</time>
    </trkpt>
    <trkpt lat="47.52214167" lon="7.64092723">
    <ele>299</ele>
    <time>2014-01-31T21:17:19Z</time>
    </trkpt>
    <trkpt lat="47.52247" lon="7.64001056">
    <ele>297</ele>
    <time>2014-01-31T21:17:43Z</time>
    </trkpt>
    <trkpt lat="47.5228" lon="7.639265">
    <ele>293</ele>
    <time>2014-01-31T21:18:03Z</time>
    </trkpt>
    <trkpt lat="47.52328223" lon="7.63782056">
    <ele>294</ele>
    <time>2014-01-31T21:18:42Z</time>
    </trkpt>
    <trkpt lat="47.52420056" lon="7.63642501">
    <ele>286</ele>
    <time>2014-01-31T21:19:22Z</time>
    </trkpt>
    <trkpt lat="47.52420778" lon="7.63643278">
    <ele>286</ele>
    <time>2014-01-31T21:19:22Z</time>
    </trkpt>
    <trkpt lat="47.52507945" lon="7.63527917">
    <ele>284</ele>
    <time>2014-01-31T21:20:15Z</time>
    </trkpt>
    <trkpt lat="47.52588139" lon="7.63433278">
    <ele>288</ele>
    <time>2014-01-31T21:21:01Z</time>
    </trkpt>
    <trkpt lat="47.52714001" lon="7.63297723">
    <ele>290</ele>
    <time>2014-01-31T21:22:07Z</time>
    </trkpt>
    <trkpt lat="47.52714001" lon="7.63297723">
    <ele>290</ele>
    <time>2014-01-31T21:22:07Z</time>
    </trkpt>
    <trkpt lat="47.52777667" lon="7.63157389">
    <ele>294</ele>
    <time>2014-01-31T21:23:08Z</time>
    </trkpt>
    <trkpt lat="47.52859334" lon="7.62959612">
    <ele>296</ele>
    <time>2014-01-31T21:24:33Z</time>
    </trkpt>
    <trkpt lat="47.52867834" lon="7.62936834">
    <ele>295</ele>
    <time>2014-01-31T21:24:42Z</time>
    </trkpt>
    <trkpt lat="47.52870639" lon="7.62929862">
    <ele>295</ele>
    <time>2014-01-31T21:24:43Z</time>
    </trkpt>
    <trkpt lat="47.5289625" lon="7.62937195">
    <ele>291</ele>
    <time>2014-01-31T21:24:47Z</time>
    </trkpt>
    <trkpt lat="47.52919612" lon="7.62865001">
    <ele>291</ele>
    <time>2014-01-31T21:25:06Z</time>
    </trkpt>
    <trkpt lat="47.52917723" lon="7.62707584">
    <ele>297</ele>
    <time>2014-01-31T21:25:49Z</time>
    </trkpt>
    <trkpt lat="47.52914306" lon="7.62557362">
    <ele>298</ele>
    <time>2014-01-31T21:26:29Z</time>
    </trkpt>
    <trkpt lat="47.529075" lon="7.62528917">
    <ele>296</ele>
    <time>2014-01-31T21:26:36Z</time>
    </trkpt>
    <trkpt lat="47.52890556" lon="7.62482473">
    <ele>292</ele>
    <time>2014-01-31T21:26:48Z</time>
    </trkpt>
    <trkpt lat="47.52859167" lon="7.62416112">
    <ele>288</ele>
    <time>2014-01-31T21:27:06Z</time>
    </trkpt>
    <trkpt lat="47.52836445" lon="7.62391973">
    <ele>287</ele>
    <time>2014-01-31T21:27:13Z</time>
    </trkpt>
    <trkpt lat="47.52793417" lon="7.62352695">
    <ele>282</ele>
    <time>2014-01-31T21:27:25Z</time>
    </trkpt>
    <trkpt lat="47.52765556" lon="7.62336723">
    <ele>281</ele>
    <time>2014-01-31T21:27:31Z</time>
    </trkpt>
    <trkpt lat="47.52731362" lon="7.62325723">
    <ele>277</ele>
    <time>2014-01-31T21:27:37Z</time>
    </trkpt>
    <trkpt lat="47.52731362" lon="7.62325723">
    <ele>277</ele>
    <time>2014-01-31T21:27:37Z</time>
    </trkpt>
    <trkpt lat="47.52731862" lon="7.62274556">
    <ele>268</ele>
    <time>2014-01-31T21:27:50Z</time>
    </trkpt>
    <trkpt lat="47.5274875" lon="7.62253056">
    <ele>267</ele>
    <time>2014-01-31T21:27:56Z</time>
    </trkpt>
    <trkpt lat="47.52784417" lon="7.62237001">
    <ele>268</ele>
    <time>2014-01-31T21:28:03Z</time>
    </trkpt>
    <trkpt lat="47.52823889" lon="7.62217278">
    <ele>269</ele>
    <time>2014-01-31T21:28:12Z</time>
    </trkpt>
    <trkpt lat="47.52823889" lon="7.62189862">
    <ele>269</ele>
    <time>2014-01-31T21:28:19Z</time>
    </trkpt>
    <trkpt lat="47.52823223" lon="7.62119167">
    <ele>269</ele>
    <time>2014-01-31T21:28:37Z</time>
    </trkpt>
    <trkpt lat="47.52850389" lon="7.62114056">
    <ele>270</ele>
    <time>2014-01-31T21:28:42Z</time>
    </trkpt>
    <trkpt lat="47.52945612" lon="7.62096139">
    <ele>268</ele>
    <time>2014-01-31T21:28:59Z</time>
    </trkpt>
    <trkpt lat="47.52944362" lon="7.62096945">
    <ele>268</ele>
    <time>2014-01-31T21:28:59Z</time>
    </trkpt>
    <trkpt lat="47.52998195" lon="7.62090195">
    <ele>266</ele>
    <time>2014-01-31T21:29:08Z</time>
    </trkpt>
    <trkpt lat="47.52998889" lon="7.6208775">
    <ele>266</ele>
    <time>2014-01-31T21:29:08Z</time>
    </trkpt>
    <trkpt lat="47.53017417" lon="7.62078778">
    <ele>266</ele>
    <time>2014-01-31T21:29:12Z</time>
    </trkpt>
    <trkpt lat="47.53034251" lon="7.62046778">
    <ele>265</ele>
    <time>2014-01-31T21:29:20Z</time>
    </trkpt>
    <trkpt lat="47.53058223" lon="7.62010417">
    <ele>264</ele>
    <time>2014-01-31T21:29:30Z</time>
    </trkpt>
    <trkpt lat="47.53076028" lon="7.62004139">
    <ele>264</ele>
    <time>2014-01-31T21:29:33Z</time>
    </trkpt>
    <trkpt lat="47.53114389" lon="7.61993806">
    <ele>261</ele>
    <time>2014-01-31T21:29:40Z</time>
    </trkpt>
    <trkpt lat="47.53204917" lon="7.61984584">
    <ele>259</ele>
    <time>2014-01-31T21:29:56Z</time>
    </trkpt>
    <trkpt lat="47.53316278" lon="7.61986112">
    <ele>257</ele>
    <time>2014-01-31T21:30:15Z</time>
    </trkpt>
    <trkpt lat="47.5362175" lon="7.61990028">
    <ele>260</ele>
    <time>2014-01-31T21:31:10Z</time>
    </trkpt>
    <trkpt lat="47.5384475" lon="7.61991334">
    <ele>262</ele>
    <time>2014-01-31T21:31:50Z</time>
    </trkpt>
    <trkpt lat="47.54028084" lon="7.62001695">
    <ele>265</ele>
    <time>2014-01-31T21:32:23Z</time>
    </trkpt>
    <trkpt lat="47.54015389" lon="7.62056806">
    <ele>262</ele>
    <time>2014-01-31T21:32:37Z</time>
    </trkpt>
    <trkpt lat="47.53997" lon="7.62142473">
    <ele>260</ele>
    <time>2014-01-31T21:32:59Z</time>
    </trkpt>
    <trkpt lat="47.53996445" lon="7.62142945">
    <ele>260</ele>
    <time>2014-01-31T21:32:59Z</time>
    </trkpt>
    <trkpt lat="47.54012945" lon="7.62149445">
    <ele>261</ele>
    <time>2014-01-31T21:33:02Z</time>
    </trkpt>
    <trkpt lat="47.54015473" lon="7.6216325">
    <ele>261</ele>
    <time>2014-01-31T21:33:05Z</time>
    </trkpt>
    <trkpt lat="47.54023251" lon="7.62177723">
    <ele>261</ele>
    <time>2014-01-31T21:33:09Z</time>
    </trkpt>
    <trkpt lat="47.54094473" lon="7.62197195">
    <ele>264</ele>
    <time>2014-01-31T21:33:23Z</time>
    </trkpt>
    <trkpt lat="47.54172028" lon="7.62197528">
    <ele>268</ele>
    <time>2014-01-31T21:33:37Z</time>
    </trkpt>
    <trkpt lat="47.54176528" lon="7.62197695">
    <ele>268</ele>
    <time>2014-01-31T21:33:37Z</time>
    </trkpt>
    <trkpt lat="47.54294917" lon="7.62205167">
    <ele>263</ele>
    <time>2014-01-31T21:33:58Z</time>
    </trkpt>
    <trkpt lat="47.54294917" lon="7.62205167">
    <ele>263</ele>
    <time>2014-01-31T21:33:58Z</time>
    </trkpt>
    <trkpt lat="47.54488834" lon="7.622145">
    <ele>263</ele>
    <time>2014-01-31T21:34:32Z</time>
    </trkpt>
    <trkpt lat="47.54488834" lon="7.622145">
    <ele>263</ele>
    <time>2014-01-31T21:34:32Z</time>
    </trkpt>
    <trkpt lat="47.54763917" lon="7.62234528">
    <ele>253</ele>
    <time>2014-01-31T21:35:21Z</time>
    </trkpt>
    <trkpt lat="47.54919139" lon="7.62242389">
    <ele>256</ele>
    <time>2014-01-31T21:35:49Z</time>
    </trkpt>
    <trkpt lat="47.55000084" lon="7.62227084">
    <ele>249</ele>
    <time>2014-01-31T21:36:04Z</time>
    </trkpt>
    <trkpt lat="47.55059278" lon="7.62205306">
    <ele>247</ele>
    <time>2014-01-31T21:36:16Z</time>
    </trkpt>
    <trkpt lat="47.55104112" lon="7.62170723">
    <ele>247</ele>
    <time>2014-01-31T21:36:28Z</time>
    </trkpt>
    <trkpt lat="47.55173501" lon="7.62098917">
    <ele>249</ele>
    <time>2014-01-31T21:36:51Z</time>
    </trkpt>
    <trkpt lat="47.55205945" lon="7.62039139">
    <ele>250</ele>
    <time>2014-01-31T21:37:08Z</time>
    </trkpt>
    <trkpt lat="47.55267528" lon="7.61920556">
    <ele>250</ele>
    <time>2014-01-31T21:37:41Z</time>
    </trkpt>
    <trkpt lat="47.55337139" lon="7.61797">
    <ele>250</ele>
    <time>2014-01-31T21:38:16Z</time>
    </trkpt>
    <trkpt lat="47.55386639" lon="7.61747945">
    <ele>251</ele>
    <time>2014-01-31T21:38:31Z</time>
    </trkpt>
    <trkpt lat="47.55442056" lon="7.61661167">
    <ele>253</ele>
    <time>2014-01-31T21:38:56Z</time>
    </trkpt>
    <trkpt lat="47.5554375" lon="7.61625389">
    <ele>250</ele>
    <time>2014-01-31T21:39:16Z</time>
    </trkpt>
    <trkpt lat="47.55547639" lon="7.61625278">
    <ele>250</ele>
    <time>2014-01-31T21:39:16Z</time>
    </trkpt>
    <trkpt lat="47.55600139" lon="7.61605306">
    <ele>249</ele>
    <time>2014-01-31T21:39:26Z</time>
    </trkpt>
    <trkpt lat="47.55664945" lon="7.61576473">
    <ele>251</ele>
    <time>2014-01-31T21:39:40Z</time>
    </trkpt>
    <trkpt lat="47.55721112" lon="7.61547778">
    <ele>255</ele>
    <time>2014-01-31T21:39:53Z</time>
    </trkpt>
    <trkpt lat="47.55719528" lon="7.615455">
    <ele>255</ele>
    <time>2014-01-31T21:39:53Z</time>
    </trkpt>
    <trkpt lat="47.55685278" lon="7.61392667">
    <ele>255</ele>
    <time>2014-01-31T21:40:33Z</time>
    </trkpt>
    <trkpt lat="47.55686639" lon="7.61393167">
    <ele>255</ele>
    <time>2014-01-31T21:40:33Z</time>
    </trkpt>
    <trkpt lat="47.55656778" lon="7.61256195">
    <ele>256</ele>
    <time>2014-01-31T21:41:09Z</time>
    </trkpt>
    <trkpt lat="47.55656778" lon="7.61256195">
    <ele>256</ele>
    <time>2014-01-31T21:41:09Z</time>
    </trkpt>
    <trkpt lat="47.55610639" lon="7.6105325">
    <ele>260</ele>
    <time>2014-01-31T21:42:04Z</time>
    </trkpt>
    <trkpt lat="47.55582667" lon="7.60958973">
    <ele>258</ele>
    <time>2014-01-31T21:42:29Z</time>
    </trkpt>
    <trkpt lat="47.55583945" lon="7.60957417">
    <ele>258</ele>
    <time>2014-01-31T21:42:29Z</time>
    </trkpt>
    <trkpt lat="47.55547612" lon="7.60779334">
    <ele>260</ele>
    <time>2014-01-31T21:43:17Z</time>
    </trkpt>
    <trkpt lat="47.55531389" lon="7.60687751">
    <ele>258</ele>
    <time>2014-01-31T21:43:41Z</time>
    </trkpt>
    <trkpt lat="47.55507612" lon="7.60401501">
    <ele>253</ele>
    <time>2014-01-31T21:44:56Z</time>
    </trkpt>
    <trkpt lat="47.55510834" lon="7.60346139">
    <ele>251</ele>
    <time>2014-01-31T21:45:10Z</time>
    </trkpt>
    <trkpt lat="47.55502973" lon="7.60241028">
    <ele>253</ele>
    <time>2014-01-31T21:45:38Z</time>
    </trkpt>
    <trkpt lat="47.55494834" lon="7.60051084">
    <ele>261</ele>
    <time>2014-01-31T21:46:30Z</time>
    </trkpt>
    <trkpt lat="47.5548825" lon="7.60004695">
    <ele>263</ele>
    <time>2014-01-31T21:46:42Z</time>
    </trkpt>
    <trkpt lat="47.55470084" lon="7.59895584">
    <ele>270</ele>
    <time>2014-01-31T21:47:12Z</time>
    </trkpt>
    <trkpt lat="47.55472612" lon="7.59892278">
    <ele>267</ele>
    <time>2014-01-31T21:47:12Z</time>
    </trkpt>
    <trkpt lat="47.55473556" lon="7.59847612">
    <ele>267</ele>
    <time>2014-01-31T21:47:23Z</time>
    </trkpt>
    <trkpt lat="47.55459445" lon="7.59678389">
    <ele>279</ele>
    <time>2014-01-31T21:48:10Z</time>
    </trkpt>
    <trkpt lat="47.55464945" lon="7.59592362">
    <ele>280</ele>
    <time>2014-01-31T21:48:33Z</time>
    </trkpt>
    <trkpt lat="47.55476501" lon="7.59462889">
    <ele>282</ele>
    <time>2014-01-31T21:49:07Z</time>
    </trkpt>
  </trkseg>
</trk>
</gpx>
